<?xml version='1.0' encoding='UTF-8'?><gpx version="1.1" creator="JPX - https://github.com/jenetics/jpx" xmlns="http://www.topografix.com/GPX/1/1"><trk><trkseg><trkpt lat="44.1083195" lon="7.9210646"><ele>1282.0</ele><time>2026-05-01T09:35:04.359Z</time></trkpt><trkpt lat="44.1083827" lon="7.9209423"><ele>1282.0</ele><time>2026-05-01T09:35:06.359Z</time></trkpt><trkpt lat="44.1084527" lon="7.92082"><ele>1282.0</ele><time>2026-05-01T09:35:08.359Z</time></trkpt><trkpt lat="44.1085265" lon="7.920688"><ele>1282.0</ele><time>2026-05-01T09:35:10.36Z</time></trkpt><trkpt lat="44.108599" lon="7.9205487"><ele>1278.3999999999999</ele><time>2026-05-01T09:35:12.359Z</time></trkpt><trkpt lat="44.1086522" lon="7.9204041"><ele>1274.8</ele><time>2026-05-01T09:35:14.359Z</time></trkpt><trkpt lat="44.1086682" lon="7.9202439"><ele>1271.2</ele><time>2026-05-01T09:35:16.359Z</time></trkpt><trkpt lat="44.1086542" lon="7.9200995"><ele>1267.6</ele><time>2026-05-01T09:35:18.36Z</time></trkpt><trkpt lat="44.1086186" lon="7.9199643"><ele>1264.0</ele><time>2026-05-01T09:35:20.359Z</time></trkpt><trkpt lat="44.1085568" lon="7.9198205"><ele>1261.6000000000001</ele><time>2026-05-01T09:35:22.36Z</time></trkpt><trkpt lat="44.1085295" lon="7.9196758"><ele>1259.2</ele><time>2026-05-01T09:35:24.36Z</time></trkpt><trkpt lat="44.1085321" lon="7.9195835"><ele>1256.8000000000002</ele><time>2026-05-01T09:35:25.36Z</time></trkpt><trkpt lat="44.1085348" lon="7.9194737"><ele>1254.4</ele><time>2026-05-01T09:35:26.36Z</time></trkpt><trkpt lat="44.108545" lon="7.9193352"><ele>1252.0</ele><time>2026-05-01T09:35:27.36Z</time></trkpt><trkpt lat="44.1085517" lon="7.9191831"><ele>1250.8</ele><time>2026-05-01T09:35:28.36Z</time></trkpt><trkpt lat="44.1085626" lon="7.9190406"><ele>1249.6</ele><time>2026-05-01T09:35:29.36Z</time></trkpt><trkpt lat="44.108578" lon="7.9188939"><ele>1248.3999999999999</ele><time>2026-05-01T09:35:30.36Z</time></trkpt><trkpt lat="44.1085959" lon="7.9187479"><ele>1247.2</ele><time>2026-05-01T09:35:31.36Z</time></trkpt><trkpt lat="44.1086113" lon="7.9186244"><ele>1246.0</ele><time>2026-05-01T09:35:32.36Z</time></trkpt><trkpt lat="44.1086205" lon="7.9184907"><ele>1244.0</ele><time>2026-05-01T09:35:33.359Z</time></trkpt><trkpt lat="44.1086251" lon="7.9183538"><ele>1242.0</ele><time>2026-05-01T09:35:34.36Z</time></trkpt><trkpt lat="44.1086285" lon="7.9182185"><ele>1240.0</ele><time>2026-05-01T09:35:35.36Z</time></trkpt><trkpt lat="44.1086259" lon="7.918083"><ele>1238.0</ele><time>2026-05-01T09:35:36.36Z</time></trkpt><trkpt lat="44.1086302" lon="7.9179557"><ele>1236.0</ele><time>2026-05-01T09:35:37.36Z</time></trkpt><trkpt lat="44.1086343" lon="7.9178278"><ele>1236.0</ele><time>2026-05-01T09:35:38.36Z</time></trkpt><trkpt lat="44.1086343" lon="7.9176981"><ele>1236.0</ele><time>2026-05-01T09:35:39.359Z</time></trkpt><trkpt lat="44.1086376" lon="7.9175696"><ele>1236.0</ele><time>2026-05-01T09:35:40.36Z</time></trkpt><trkpt lat="44.1086356" lon="7.9174482"><ele>1236.0</ele><time>2026-05-01T09:35:41.359Z</time></trkpt><trkpt lat="44.1086352" lon="7.9173311"><ele>1236.0</ele><time>2026-05-01T09:35:42.359Z</time></trkpt><trkpt lat="44.1086326" lon="7.9172169"><ele>1236.0</ele><time>2026-05-01T09:35:43.359Z</time></trkpt><trkpt lat="44.1086389" lon="7.9171041"><ele>1233.3999999999999</ele><time>2026-05-01T09:35:44.359Z</time></trkpt><trkpt lat="44.1086425" lon="7.91699"><ele>1230.8</ele><time>2026-05-01T09:35:45.359Z</time></trkpt><trkpt lat="44.1086543" lon="7.9168609"><ele>1228.1999999999998</ele><time>2026-05-01T09:35:46.36Z</time></trkpt><trkpt lat="44.1086598" lon="7.916729"><ele>1225.6</ele><time>2026-05-01T09:35:47.36Z</time></trkpt><trkpt lat="44.1086672" lon="7.9165908"><ele>1223.0</ele><time>2026-05-01T09:35:48.36Z</time></trkpt><trkpt lat="44.1086798" lon="7.9164488"><ele>1221.2</ele><time>2026-05-01T09:35:49.36Z</time></trkpt><trkpt lat="44.1086897" lon="7.9163098"><ele>1219.4</ele><time>2026-05-01T09:35:50.36Z</time></trkpt><trkpt lat="44.1086954" lon="7.9161754"><ele>1217.6000000000001</ele><time>2026-05-01T09:35:51.36Z</time></trkpt><trkpt lat="44.108714" lon="7.9160618"><ele>1215.8</ele><time>2026-05-01T09:35:52.359Z</time></trkpt><trkpt lat="44.108719" lon="7.9159436"><ele>1214.0</ele><time>2026-05-01T09:35:53.36Z</time></trkpt><trkpt lat="44.1087226" lon="7.9158219"><ele>1212.2</ele><time>2026-05-01T09:35:54.359Z</time></trkpt><trkpt lat="44.1087343" lon="7.9156911"><ele>1210.4</ele><time>2026-05-01T09:35:55.36Z</time></trkpt><trkpt lat="44.1087308" lon="7.9155664"><ele>1208.6</ele><time>2026-05-01T09:35:56.36Z</time></trkpt><trkpt lat="44.1087363" lon="7.9154272"><ele>1206.8</ele><time>2026-05-01T09:35:57.359Z</time></trkpt><trkpt lat="44.1087401" lon="7.9152918"><ele>1205.0</ele><time>2026-05-01T09:35:58.36Z</time></trkpt><trkpt lat="44.1087438" lon="7.9151699"><ele>1204.6666666666667</ele><time>2026-05-01T09:35:59.359Z</time></trkpt><trkpt lat="44.1087445" lon="7.9150488"><ele>1204.3333333333335</ele><time>2026-05-01T09:36:00.36Z</time></trkpt><trkpt lat="44.1087559" lon="7.9149256"><ele>1204.0</ele><time>2026-05-01T09:36:01.36Z</time></trkpt><trkpt lat="44.1087663" lon="7.9148227"><ele>1203.6666666666667</ele><time>2026-05-01T09:36:02.36Z</time></trkpt><trkpt lat="44.1087725" lon="7.9147042"><ele>1203.3333333333333</ele><time>2026-05-01T09:36:03.36Z</time></trkpt><trkpt lat="44.1087724" lon="7.9145977"><ele>1203.0</ele><time>2026-05-01T09:36:04.359Z</time></trkpt><trkpt lat="44.108756" lon="7.9145083"><ele>1203.0</ele><time>2026-05-01T09:36:05.36Z</time></trkpt><trkpt lat="44.1087249" lon="7.9143555"><ele>1203.0</ele><time>2026-05-01T09:36:07.36Z</time></trkpt><trkpt lat="44.1086417" lon="7.9143239"><ele>1203.0</ele><time>2026-05-01T09:36:08.358Z</time></trkpt><trkpt lat="44.1085575" lon="7.9142225"><ele>1203.0</ele><time>2026-05-01T09:36:10.36Z</time></trkpt><trkpt lat="44.1085094" lon="7.9141384"><ele>1203.0</ele><time>2026-05-01T09:36:11.36Z</time></trkpt><trkpt lat="44.10847" lon="7.9140302"><ele>1203.2</ele><time>2026-05-01T09:36:12.36Z</time></trkpt><trkpt lat="44.1084353" lon="7.9139173"><ele>1203.4</ele><time>2026-05-01T09:36:13.36Z</time></trkpt><trkpt lat="44.108403" lon="7.9138011"><ele>1203.6000000000001</ele><time>2026-05-01T09:36:14.36Z</time></trkpt><trkpt lat="44.1083772" lon="7.913661"><ele>1203.8</ele><time>2026-05-01T09:36:15.36Z</time></trkpt><trkpt lat="44.1083568" lon="7.9135106"><ele>1204.0</ele><time>2026-05-01T09:36:16.36Z</time></trkpt><trkpt lat="44.1083308" lon="7.9133648"><ele>1203.6000000000001</ele><time>2026-05-01T09:36:17.36Z</time></trkpt><trkpt lat="44.108306" lon="7.9132123"><ele>1203.2</ele><time>2026-05-01T09:36:18.36Z</time></trkpt><trkpt lat="44.1082894" lon="7.9130737"><ele>1202.8000000000002</ele><time>2026-05-01T09:36:19.359Z</time></trkpt><trkpt lat="44.1082686" lon="7.9129427"><ele>1202.4</ele><time>2026-05-01T09:36:20.36Z</time></trkpt><trkpt lat="44.1082489" lon="7.9127912"><ele>1202.0</ele><time>2026-05-01T09:36:21.358Z</time></trkpt><trkpt lat="44.1082194" lon="7.9126523"><ele>1194.2</ele><time>2026-05-01T09:36:22.36Z</time></trkpt><trkpt lat="44.1081888" lon="7.9125347"><ele>1186.4</ele><time>2026-05-01T09:36:23.359Z</time></trkpt><trkpt lat="44.1081516" lon="7.9123946"><ele>1178.6</ele><time>2026-05-01T09:36:24.36Z</time></trkpt><trkpt lat="44.1081178" lon="7.9122472"><ele>1170.8</ele><time>2026-05-01T09:36:25.36Z</time></trkpt><trkpt lat="44.1080851" lon="7.9120989"><ele>1163.0</ele><time>2026-05-01T09:36:26.36Z</time></trkpt><trkpt lat="44.1080514" lon="7.911965"><ele>1163.0</ele><time>2026-05-01T09:36:27.36Z</time></trkpt><trkpt lat="44.108009" lon="7.9118263"><ele>1163.0</ele><time>2026-05-01T09:36:28.36Z</time></trkpt><trkpt lat="44.1079705" lon="7.9116845"><ele>1163.0</ele><time>2026-05-01T09:36:29.36Z</time></trkpt><trkpt lat="44.107929" lon="7.9115557"><ele>1163.0</ele><time>2026-05-01T09:36:30.36Z</time></trkpt><trkpt lat="44.1078907" lon="7.9114272"><ele>1163.0</ele><time>2026-05-01T09:36:31.36Z</time></trkpt><trkpt lat="44.1078462" lon="7.9112921"><ele>1163.6</ele><time>2026-05-01T09:36:32.36Z</time></trkpt><trkpt lat="44.1078056" lon="7.9111554"><ele>1164.1999999999998</ele><time>2026-05-01T09:36:33.36Z</time></trkpt><trkpt lat="44.107782" lon="7.9110135"><ele>1164.8</ele><time>2026-05-01T09:36:34.359Z</time></trkpt><trkpt lat="44.1077595" lon="7.9108636"><ele>1165.3999999999999</ele><time>2026-05-01T09:36:35.36Z</time></trkpt><trkpt lat="44.1077334" lon="7.9107051"><ele>1166.0</ele><time>2026-05-01T09:36:36.36Z</time></trkpt><trkpt lat="44.1076997" lon="7.9105684"><ele>1166.6</ele><time>2026-05-01T09:36:37.36Z</time></trkpt><trkpt lat="44.1076495" lon="7.9104318"><ele>1167.1999999999998</ele><time>2026-05-01T09:36:38.359Z</time></trkpt><trkpt lat="44.1075798" lon="7.9102905"><ele>1167.8000000000002</ele><time>2026-05-01T09:36:39.359Z</time></trkpt><trkpt lat="44.1075155" lon="7.9101669"><ele>1168.4</ele><time>2026-05-01T09:36:40.36Z</time></trkpt><trkpt lat="44.1074577" lon="7.9100434"><ele>1169.0</ele><time>2026-05-01T09:36:41.36Z</time></trkpt><trkpt lat="44.1073921" lon="7.9099119"><ele>1164.0</ele><time>2026-05-01T09:36:42.359Z</time></trkpt><trkpt lat="44.1073194" lon="7.9097975"><ele>1159.0</ele><time>2026-05-01T09:36:43.36Z</time></trkpt><trkpt lat="44.1072491" lon="7.9096921"><ele>1154.0</ele><time>2026-05-01T09:36:44.36Z</time></trkpt><trkpt lat="44.1071802" lon="7.9095856"><ele>1149.0</ele><time>2026-05-01T09:36:45.36Z</time></trkpt><trkpt lat="44.1071143" lon="7.9094944"><ele>1144.0</ele><time>2026-05-01T09:36:46.359Z</time></trkpt><trkpt lat="44.107045" lon="7.9094111"><ele>1144.0</ele><time>2026-05-01T09:36:47.36Z</time></trkpt><trkpt lat="44.1069844" lon="7.9093258"><ele>1144.0</ele><time>2026-05-01T09:36:48.359Z</time></trkpt><trkpt lat="44.1069314" lon="7.9092461"><ele>1144.0</ele><time>2026-05-01T09:36:49.359Z</time></trkpt><trkpt lat="44.1068939" lon="7.9091566"><ele>1144.0</ele><time>2026-05-01T09:36:50.359Z</time></trkpt><trkpt lat="44.1068566" lon="7.9090721"><ele>1144.0</ele><time>2026-05-01T09:36:51.36Z</time></trkpt><trkpt lat="44.1068264" lon="7.9089693"><ele>1144.0</ele><time>2026-05-01T09:36:52.36Z</time></trkpt><trkpt lat="44.1068082" lon="7.9088428"><ele>1145.2</ele><time>2026-05-01T09:36:53.359Z</time></trkpt><trkpt lat="44.1068009" lon="7.9087165"><ele>1146.4</ele><time>2026-05-01T09:36:54.36Z</time></trkpt><trkpt lat="44.1068003" lon="7.9085903"><ele>1147.6</ele><time>2026-05-01T09:36:55.36Z</time></trkpt><trkpt lat="44.1067948" lon="7.9084627"><ele>1148.8</ele><time>2026-05-01T09:36:56.36Z</time></trkpt><trkpt lat="44.1067927" lon="7.9083209"><ele>1150.0</ele><time>2026-05-01T09:36:57.36Z</time></trkpt><trkpt lat="44.1067894" lon="7.9081836"><ele>1150.0</ele><time>2026-05-01T09:36:58.359Z</time></trkpt><trkpt lat="44.1067989" lon="7.9080453"><ele>1150.0</ele><time>2026-05-01T09:36:59.36Z</time></trkpt><trkpt lat="44.1068123" lon="7.9079162"><ele>1150.0</ele><time>2026-05-01T09:37:00.36Z</time></trkpt><trkpt lat="44.1068383" lon="7.9077883"><ele>1150.0</ele><time>2026-05-01T09:37:01.359Z</time></trkpt><trkpt lat="44.1068795" lon="7.9076754"><ele>1150.0</ele><time>2026-05-01T09:37:02.359Z</time></trkpt><trkpt lat="44.1069333" lon="7.9075669"><ele>1147.6</ele><time>2026-05-01T09:37:03.36Z</time></trkpt><trkpt lat="44.1069906" lon="7.9074615"><ele>1145.2</ele><time>2026-05-01T09:37:04.36Z</time></trkpt><trkpt lat="44.1070568" lon="7.9073602"><ele>1142.8</ele><time>2026-05-01T09:37:05.358Z</time></trkpt><trkpt lat="44.1071322" lon="7.9072634"><ele>1140.4</ele><time>2026-05-01T09:37:06.36Z</time></trkpt><trkpt lat="44.1072036" lon="7.9071637"><ele>1138.0</ele><time>2026-05-01T09:37:07.36Z</time></trkpt><trkpt lat="44.1072731" lon="7.9070578"><ele>1138.0</ele><time>2026-05-01T09:37:08.36Z</time></trkpt><trkpt lat="44.1073444" lon="7.9069639"><ele>1138.0</ele><time>2026-05-01T09:37:09.36Z</time></trkpt><trkpt lat="44.1074079" lon="7.9068689"><ele>1138.0</ele><time>2026-05-01T09:37:10.36Z</time></trkpt><trkpt lat="44.1074729" lon="7.9067774"><ele>1138.0</ele><time>2026-05-01T09:37:11.359Z</time></trkpt><trkpt lat="44.1075334" lon="7.9066944"><ele>1138.0</ele><time>2026-05-01T09:37:12.36Z</time></trkpt><trkpt lat="44.1075879" lon="7.9066139"><ele>1138.0</ele><time>2026-05-01T09:37:13.358Z</time></trkpt><trkpt lat="44.107648" lon="7.9065281"><ele>1138.6666666666665</ele><time>2026-05-01T09:37:14.36Z</time></trkpt><trkpt lat="44.1077157" lon="7.9064612"><ele>1139.3333333333333</ele><time>2026-05-01T09:37:15.36Z</time></trkpt><trkpt lat="44.1077714" lon="7.9063997"><ele>1140.0</ele><time>2026-05-01T09:37:16.36Z</time></trkpt><trkpt lat="44.1078221" lon="7.9063466"><ele>1140.6666666666667</ele><time>2026-05-01T09:37:17.36Z</time></trkpt><trkpt lat="44.1078781" lon="7.906251"><ele>1141.3333333333335</ele><time>2026-05-01T09:37:19.36Z</time></trkpt><trkpt lat="44.1078562" lon="7.906127"><ele>1142.0</ele><time>2026-05-01T09:37:21.36Z</time></trkpt><trkpt lat="44.1078543" lon="7.9060236"><ele>1140.3333333333335</ele><time>2026-05-01T09:37:23.36Z</time></trkpt><trkpt lat="44.1077944" lon="7.90589"><ele>1138.6666666666667</ele><time>2026-05-01T09:37:25.36Z</time></trkpt><trkpt lat="44.1077577" lon="7.9058037"><ele>1137.0</ele><time>2026-05-01T09:37:26.36Z</time></trkpt><trkpt lat="44.1077188" lon="7.905705"><ele>1135.3333333333333</ele><time>2026-05-01T09:37:27.359Z</time></trkpt><trkpt lat="44.1076783" lon="7.9056083"><ele>1133.6666666666665</ele><time>2026-05-01T09:37:28.36Z</time></trkpt><trkpt lat="44.1076355" lon="7.9055232"><ele>1132.0</ele><time>2026-05-01T09:37:29.359Z</time></trkpt><trkpt lat="44.1075738" lon="7.9054224"><ele>1132.0</ele><time>2026-05-01T09:37:30.36Z</time></trkpt><trkpt lat="44.1075175" lon="7.9053439"><ele>1132.0</ele><time>2026-05-01T09:37:31.36Z</time></trkpt><trkpt lat="44.1074628" lon="7.9052625"><ele>1132.0</ele><time>2026-05-01T09:37:32.36Z</time></trkpt><trkpt lat="44.1074013" lon="7.9051799"><ele>1132.0</ele><time>2026-05-01T09:37:33.36Z</time></trkpt><trkpt lat="44.1073324" lon="7.9050767"><ele>1132.0</ele><time>2026-05-01T09:37:34.36Z</time></trkpt><trkpt lat="44.1072585" lon="7.904989"><ele>1132.0</ele><time>2026-05-01T09:37:35.36Z</time></trkpt><trkpt lat="44.1071783" lon="7.9048928"><ele>1129.0</ele><time>2026-05-01T09:37:36.36Z</time></trkpt><trkpt lat="44.1071131" lon="7.9047981"><ele>1126.0</ele><time>2026-05-01T09:37:37.36Z</time></trkpt><trkpt lat="44.1070472" lon="7.9046935"><ele>1123.0</ele><time>2026-05-01T09:37:38.359Z</time></trkpt><trkpt lat="44.1069794" lon="7.9046105"><ele>1120.0</ele><time>2026-05-01T09:37:39.359Z</time></trkpt><trkpt lat="44.1069023" lon="7.9045296"><ele>1117.0</ele><time>2026-05-01T09:37:40.36Z</time></trkpt><trkpt lat="44.1068251" lon="7.9044719"><ele>1117.0</ele><time>2026-05-01T09:37:41.36Z</time></trkpt><trkpt lat="44.1067543" lon="7.904411"><ele>1117.0</ele><time>2026-05-01T09:37:42.36Z</time></trkpt><trkpt lat="44.1066909" lon="7.9043454"><ele>1117.0</ele><time>2026-05-01T09:37:43.359Z</time></trkpt><trkpt lat="44.1066358" lon="7.904279"><ele>1117.0</ele><time>2026-05-01T09:37:44.36Z</time></trkpt><trkpt lat="44.1065973" lon="7.9041986"><ele>1117.0</ele><time>2026-05-01T09:37:45.359Z</time></trkpt><trkpt lat="44.1065705" lon="7.9040318"><ele>1117.0</ele><time>2026-05-01T09:37:47.36Z</time></trkpt><trkpt lat="44.1065762" lon="7.9039136"><ele>1119.6</ele><time>2026-05-01T09:37:48.36Z</time></trkpt><trkpt lat="44.1065928" lon="7.9037821"><ele>1122.2</ele><time>2026-05-01T09:37:49.36Z</time></trkpt><trkpt lat="44.1065968" lon="7.9036277"><ele>1124.8</ele><time>2026-05-01T09:37:50.36Z</time></trkpt><trkpt lat="44.1066012" lon="7.9034715"><ele>1127.4</ele><time>2026-05-01T09:37:51.36Z</time></trkpt><trkpt lat="44.1066104" lon="7.9033157"><ele>1130.0</ele><time>2026-05-01T09:37:52.359Z</time></trkpt><trkpt lat="44.1066145" lon="7.903169"><ele>1130.0</ele><time>2026-05-01T09:37:53.36Z</time></trkpt><trkpt lat="44.1065957" lon="7.9030444"><ele>1130.0</ele><time>2026-05-01T09:37:54.36Z</time></trkpt><trkpt lat="44.1065648" lon="7.9028948"><ele>1130.0</ele><time>2026-05-01T09:37:55.359Z</time></trkpt><trkpt lat="44.1065271" lon="7.9027465"><ele>1130.0</ele><time>2026-05-01T09:37:56.36Z</time></trkpt><trkpt lat="44.1064804" lon="7.9026012"><ele>1130.0</ele><time>2026-05-01T09:37:57.36Z</time></trkpt><trkpt lat="44.1064231" lon="7.9024536"><ele>1119.25</ele><time>2026-05-01T09:37:58.36Z</time></trkpt><trkpt lat="44.1063476" lon="7.9022846"><ele>1108.5</ele><time>2026-05-01T09:37:59.36Z</time></trkpt><trkpt lat="44.1062812" lon="7.9021424"><ele>1097.75</ele><time>2026-05-01T09:38:00.36Z</time></trkpt><trkpt lat="44.1062254" lon="7.9020091"><ele>1087.0</ele><time>2026-05-01T09:38:01.359Z</time></trkpt><trkpt lat="44.1061791" lon="7.9018805"><ele>1087.0</ele><time>2026-05-01T09:38:02.36Z</time></trkpt><trkpt lat="44.1061279" lon="7.901761"><ele>1087.0</ele><time>2026-05-01T09:38:03.36Z</time></trkpt><trkpt lat="44.1060894" lon="7.9016548"><ele>1087.0</ele><time>2026-05-01T09:38:04.36Z</time></trkpt><trkpt lat="44.1060546" lon="7.9015507"><ele>1087.0</ele><time>2026-05-01T09:38:05.359Z</time></trkpt><trkpt lat="44.1060181" lon="7.9014501"><ele>1087.0</ele><time>2026-05-01T09:38:06.36Z</time></trkpt><trkpt lat="44.1059993" lon="7.9013364"><ele>1087.0</ele><time>2026-05-01T09:38:07.36Z</time></trkpt><trkpt lat="44.1059842" lon="7.9012247"><ele>1090.0</ele><time>2026-05-01T09:38:08.36Z</time></trkpt><trkpt lat="44.1059712" lon="7.9010959"><ele>1093.0</ele><time>2026-05-01T09:38:09.36Z</time></trkpt><trkpt lat="44.1059657" lon="7.900969"><ele>1096.0</ele><time>2026-05-01T09:38:10.359Z</time></trkpt><trkpt lat="44.1059593" lon="7.9008364"><ele>1099.0</ele><time>2026-05-01T09:38:11.36Z</time></trkpt><trkpt lat="44.1059396" lon="7.9007024"><ele>1102.0</ele><time>2026-05-01T09:38:12.36Z</time></trkpt><trkpt lat="44.1059182" lon="7.9005721"><ele>1102.2</ele><time>2026-05-01T09:38:13.36Z</time></trkpt><trkpt lat="44.1058953" lon="7.9004212"><ele>1102.4</ele><time>2026-05-01T09:38:14.36Z</time></trkpt><trkpt lat="44.1058808" lon="7.9002764"><ele>1102.6</ele><time>2026-05-01T09:38:15.36Z</time></trkpt><trkpt lat="44.1058739" lon="7.9001308"><ele>1102.8</ele><time>2026-05-01T09:38:16.36Z</time></trkpt><trkpt lat="44.105878" lon="7.8999846"><ele>1103.0</ele><time>2026-05-01T09:38:17.36Z</time></trkpt><trkpt lat="44.1058841" lon="7.8998318"><ele>1103.0</ele><time>2026-05-01T09:38:18.359Z</time></trkpt><trkpt lat="44.1058728" lon="7.8996926"><ele>1103.0</ele><time>2026-05-01T09:38:19.36Z</time></trkpt><trkpt lat="44.1058507" lon="7.8995611"><ele>1103.0</ele><time>2026-05-01T09:38:20.359Z</time></trkpt><trkpt lat="44.1058196" lon="7.8994447"><ele>1103.0</ele><time>2026-05-01T09:38:21.36Z</time></trkpt><trkpt lat="44.1057806" lon="7.8993018"><ele>1103.0</ele><time>2026-05-01T09:38:22.36Z</time></trkpt><trkpt lat="44.1057526" lon="7.8991658"><ele>1096.8</ele><time>2026-05-01T09:38:23.36Z</time></trkpt><trkpt lat="44.1057224" lon="7.8990297"><ele>1090.6</ele><time>2026-05-01T09:38:24.36Z</time></trkpt><trkpt lat="44.1056977" lon="7.8989078"><ele>1084.4</ele><time>2026-05-01T09:38:25.36Z</time></trkpt><trkpt lat="44.1056684" lon="7.8987871"><ele>1078.2</ele><time>2026-05-01T09:38:26.36Z</time></trkpt><trkpt lat="44.105632" lon="7.8986936"><ele>1072.0</ele><time>2026-05-01T09:38:27.359Z</time></trkpt><trkpt lat="44.1055935" lon="7.8985822"><ele>1072.0</ele><time>2026-05-01T09:38:28.36Z</time></trkpt><trkpt lat="44.1055078" lon="7.8985304"><ele>1072.0</ele><time>2026-05-01T09:38:29.36Z</time></trkpt><trkpt lat="44.105437" lon="7.8984413"><ele>1072.0</ele><time>2026-05-01T09:38:30.36Z</time></trkpt><trkpt lat="44.1053714" lon="7.8983458"><ele>1072.0</ele><time>2026-05-01T09:38:31.359Z</time></trkpt><trkpt lat="44.1052982" lon="7.8982617"><ele>1072.0</ele><time>2026-05-01T09:38:32.36Z</time></trkpt><trkpt lat="44.105239" lon="7.8981942"><ele>1071.6</ele><time>2026-05-01T09:38:33.36Z</time></trkpt><trkpt lat="44.1051605" lon="7.8981537"><ele>1071.2</ele><time>2026-05-01T09:38:34.36Z</time></trkpt><trkpt lat="44.1050724" lon="7.8981323"><ele>1070.8</ele><time>2026-05-01T09:38:35.359Z</time></trkpt><trkpt lat="44.104981" lon="7.8981147"><ele>1070.4</ele><time>2026-05-01T09:38:36.359Z</time></trkpt><trkpt lat="44.1048729" lon="7.8980951"><ele>1070.0</ele><time>2026-05-01T09:38:37.36Z</time></trkpt><trkpt lat="44.1047838" lon="7.8980658"><ele>1070.0</ele><time>2026-05-01T09:38:38.36Z</time></trkpt><trkpt lat="44.1047056" lon="7.8980413"><ele>1070.0</ele><time>2026-05-01T09:38:39.359Z</time></trkpt><trkpt lat="44.1046424" lon="7.8979944"><ele>1070.0</ele><time>2026-05-01T09:38:40.36Z</time></trkpt><trkpt lat="44.1045829" lon="7.8979384"><ele>1070.0</ele><time>2026-05-01T09:38:41.36Z</time></trkpt><trkpt lat="44.1045408" lon="7.8978585"><ele>1070.0</ele><time>2026-05-01T09:38:42.36Z</time></trkpt><trkpt lat="44.1044982" lon="7.8977632"><ele>1070.0</ele><time>2026-05-01T09:38:43.36Z</time></trkpt><trkpt lat="44.1044597" lon="7.8976639"><ele>1073.0</ele><time>2026-05-01T09:38:44.36Z</time></trkpt><trkpt lat="44.104442" lon="7.8975552"><ele>1076.0</ele><time>2026-05-01T09:38:45.36Z</time></trkpt><trkpt lat="44.1044301" lon="7.8974318"><ele>1079.0</ele><time>2026-05-01T09:38:46.36Z</time></trkpt><trkpt lat="44.104414" lon="7.8973063"><ele>1082.0</ele><time>2026-05-01T09:38:47.36Z</time></trkpt><trkpt lat="44.1043906" lon="7.8971821"><ele>1085.0</ele><time>2026-05-01T09:38:48.36Z</time></trkpt><trkpt lat="44.1043407" lon="7.897032"><ele>1085.0</ele><time>2026-05-01T09:38:49.359Z</time></trkpt><trkpt lat="44.1043021" lon="7.89688"><ele>1085.0</ele><time>2026-05-01T09:38:50.36Z</time></trkpt><trkpt lat="44.1042682" lon="7.8967523"><ele>1085.0</ele><time>2026-05-01T09:38:51.36Z</time></trkpt><trkpt lat="44.1042473" lon="7.8965974"><ele>1085.0</ele><time>2026-05-01T09:38:52.36Z</time></trkpt><trkpt lat="44.1042193" lon="7.8964544"><ele>1085.0</ele><time>2026-05-01T09:38:53.36Z</time></trkpt><trkpt lat="44.1041841" lon="7.896301"><ele>1086.2</ele><time>2026-05-01T09:38:54.358Z</time></trkpt><trkpt lat="44.1041698" lon="7.896146"><ele>1087.4</ele><time>2026-05-01T09:38:55.359Z</time></trkpt><trkpt lat="44.1041492" lon="7.8959972"><ele>1088.6</ele><time>2026-05-01T09:38:56.36Z</time></trkpt><trkpt lat="44.1041513" lon="7.8958457"><ele>1089.8</ele><time>2026-05-01T09:38:57.36Z</time></trkpt><trkpt lat="44.1041392" lon="7.8956849"><ele>1091.0</ele><time>2026-05-01T09:38:58.36Z</time></trkpt><trkpt lat="44.1041102" lon="7.895531"><ele>1084.25</ele><time>2026-05-01T09:38:59.36Z</time></trkpt><trkpt lat="44.1040692" lon="7.8953738"><ele>1077.5</ele><time>2026-05-01T09:39:00.36Z</time></trkpt><trkpt lat="44.1040256" lon="7.8952264"><ele>1070.75</ele><time>2026-05-01T09:39:01.36Z</time></trkpt><trkpt lat="44.1039823" lon="7.8950871"><ele>1064.0</ele><time>2026-05-01T09:39:02.36Z</time></trkpt><trkpt lat="44.1039546" lon="7.8949382"><ele>1064.0</ele><time>2026-05-01T09:39:03.36Z</time></trkpt><trkpt lat="44.1039306" lon="7.8948134"><ele>1064.0</ele><time>2026-05-01T09:39:04.36Z</time></trkpt><trkpt lat="44.1038932" lon="7.8946781"><ele>1064.0</ele><time>2026-05-01T09:39:05.359Z</time></trkpt><trkpt lat="44.1038793" lon="7.8945444"><ele>1064.0</ele><time>2026-05-01T09:39:06.359Z</time></trkpt><trkpt lat="44.10388" lon="7.8943724"><ele>1064.0</ele><time>2026-05-01T09:39:07.36Z</time></trkpt><trkpt lat="44.1038813" lon="7.8942401"><ele>1063.6000000000001</ele><time>2026-05-01T09:39:08.36Z</time></trkpt><trkpt lat="44.1038704" lon="7.8941044"><ele>1063.2</ele><time>2026-05-01T09:39:09.36Z</time></trkpt><trkpt lat="44.1038792" lon="7.8939617"><ele>1062.8000000000002</ele><time>2026-05-01T09:39:10.36Z</time></trkpt><trkpt lat="44.1038821" lon="7.8938311"><ele>1062.4</ele><time>2026-05-01T09:39:11.359Z</time></trkpt><trkpt lat="44.1038971" lon="7.8937071"><ele>1062.0</ele><time>2026-05-01T09:39:12.359Z</time></trkpt><trkpt lat="44.1039222" lon="7.8935752"><ele>1062.0</ele><time>2026-05-01T09:39:13.36Z</time></trkpt><trkpt lat="44.1039593" lon="7.8934519"><ele>1062.0</ele><time>2026-05-01T09:39:14.36Z</time></trkpt><trkpt lat="44.1039939" lon="7.8933353"><ele>1062.0</ele><time>2026-05-01T09:39:15.36Z</time></trkpt><trkpt lat="44.104013" lon="7.8932319"><ele>1062.0</ele><time>2026-05-01T09:39:16.359Z</time></trkpt><trkpt lat="44.1040063" lon="7.8931445"><ele>1062.0</ele><time>2026-05-01T09:39:17.36Z</time></trkpt><trkpt lat="44.1039785" lon="7.893033"><ele>1062.0</ele><time>2026-05-01T09:39:18.36Z</time></trkpt><trkpt lat="44.1039384" lon="7.8929127"><ele>1061.6</ele><time>2026-05-01T09:39:19.36Z</time></trkpt><trkpt lat="44.1038854" lon="7.8927737"><ele>1061.2</ele><time>2026-05-01T09:39:20.36Z</time></trkpt><trkpt lat="44.103837" lon="7.8926552"><ele>1060.8</ele><time>2026-05-01T09:39:21.359Z</time></trkpt><trkpt lat="44.1038027" lon="7.8925476"><ele>1060.4</ele><time>2026-05-01T09:39:22.36Z</time></trkpt><trkpt lat="44.1037713" lon="7.892412"><ele>1060.0</ele><time>2026-05-01T09:39:23.359Z</time></trkpt><trkpt lat="44.1037417" lon="7.8922748"><ele>1061.5</ele><time>2026-05-01T09:39:24.36Z</time></trkpt><trkpt lat="44.1037304" lon="7.892153"><ele>1063.0</ele><time>2026-05-01T09:39:25.36Z</time></trkpt><trkpt lat="44.1037205" lon="7.8920346"><ele>1064.5</ele><time>2026-05-01T09:39:26.36Z</time></trkpt><trkpt lat="44.1037133" lon="7.8919429"><ele>1066.0</ele><time>2026-05-01T09:39:27.36Z</time></trkpt><trkpt lat="44.1037029" lon="7.8918368"><ele>1067.5</ele><time>2026-05-01T09:39:28.36Z</time></trkpt><trkpt lat="44.1037321" lon="7.8917173"><ele>1069.0</ele><time>2026-05-01T09:39:29.36Z</time></trkpt><trkpt lat="44.1037544" lon="7.8916203"><ele>1070.857142857143</ele><time>2026-05-01T09:39:30.359Z</time></trkpt><trkpt lat="44.1037615" lon="7.8915313"><ele>1072.7142857142858</ele><time>2026-05-01T09:39:31.36Z</time></trkpt><trkpt lat="44.1037157" lon="7.8914134"><ele>1074.5714285714287</ele><time>2026-05-01T09:39:33.36Z</time></trkpt><trkpt lat="44.103682" lon="7.8913297"><ele>1076.4285714285716</ele><time>2026-05-01T09:39:34.36Z</time></trkpt><trkpt lat="44.1036534" lon="7.8912379"><ele>1078.2857142857142</ele><time>2026-05-01T09:39:35.36Z</time></trkpt><trkpt lat="44.1036255" lon="7.8911559"><ele>1080.1428571428573</ele><time>2026-05-01T09:39:36.36Z</time></trkpt><trkpt lat="44.1035707" lon="7.891091"><ele>1082.0</ele><time>2026-05-01T09:39:37.359Z</time></trkpt><trkpt lat="44.1035012" lon="7.8910145"><ele>1082.0</ele><time>2026-05-01T09:39:38.359Z</time></trkpt><trkpt lat="44.1034081" lon="7.8909647"><ele>1082.0</ele><time>2026-05-01T09:39:39.359Z</time></trkpt><trkpt lat="44.1032922" lon="7.890922"><ele>1082.0</ele><time>2026-05-01T09:39:40.36Z</time></trkpt><trkpt lat="44.1031971" lon="7.8908568"><ele>1082.0</ele><time>2026-05-01T09:39:41.36Z</time></trkpt><trkpt lat="44.1031217" lon="7.8908012"><ele>1082.0</ele><time>2026-05-01T09:39:42.359Z</time></trkpt><trkpt lat="44.1030584" lon="7.8907426"><ele>1081.5</ele><time>2026-05-01T09:39:43.36Z</time></trkpt><trkpt lat="44.1030042" lon="7.8906911"><ele>1081.0</ele><time>2026-05-01T09:39:44.36Z</time></trkpt><trkpt lat="44.1029566" lon="7.890613"><ele>1080.5</ele><time>2026-05-01T09:39:45.36Z</time></trkpt><trkpt lat="44.1029093" lon="7.8904908"><ele>1080.0</ele><time>2026-05-01T09:39:46.36Z</time></trkpt><trkpt lat="44.1028781" lon="7.8903821"><ele>1079.5</ele><time>2026-05-01T09:39:47.36Z</time></trkpt><trkpt lat="44.1028448" lon="7.8902859"><ele>1079.0</ele><time>2026-05-01T09:39:48.36Z</time></trkpt><trkpt lat="44.1028384" lon="7.8901915"><ele>1081.0</ele><time>2026-05-01T09:39:49.36Z</time></trkpt><trkpt lat="44.1028258" lon="7.8900662"><ele>1083.0</ele><time>2026-05-01T09:39:51.36Z</time></trkpt><trkpt lat="44.1027822" lon="7.8899342"><ele>1085.0</ele><time>2026-05-01T09:39:53.36Z</time></trkpt><trkpt lat="44.1026518" lon="7.8898276"><ele>1087.0</ele><time>2026-05-01T09:39:55.36Z</time></trkpt><trkpt lat="44.102571" lon="7.889757"><ele>1089.0</ele><time>2026-05-01T09:39:56.36Z</time></trkpt><trkpt lat="44.1024882" lon="7.8897012"><ele>1089.0</ele><time>2026-05-01T09:39:57.359Z</time></trkpt><trkpt lat="44.102421" lon="7.889654"><ele>1089.0</ele><time>2026-05-01T09:39:58.36Z</time></trkpt><trkpt lat="44.102352" lon="7.8896006"><ele>1089.0</ele><time>2026-05-01T09:39:59.359Z</time></trkpt><trkpt lat="44.1022928" lon="7.8895113"><ele>1089.0</ele><time>2026-05-01T09:40:00.359Z</time></trkpt><trkpt lat="44.1022351" lon="7.8894238"><ele>1089.0</ele><time>2026-05-01T09:40:01.36Z</time></trkpt><trkpt lat="44.1022022" lon="7.8893271"><ele>1089.0</ele><time>2026-05-01T09:40:02.36Z</time></trkpt><trkpt lat="44.1021687" lon="7.889241"><ele>1085.8333333333333</ele><time>2026-05-01T09:40:03.36Z</time></trkpt><trkpt lat="44.1021239" lon="7.8891539"><ele>1082.6666666666667</ele><time>2026-05-01T09:40:04.36Z</time></trkpt><trkpt lat="44.1020769" lon="7.8890843"><ele>1079.5</ele><time>2026-05-01T09:40:05.359Z</time></trkpt><trkpt lat="44.1020212" lon="7.8890117"><ele>1076.3333333333335</ele><time>2026-05-01T09:40:06.36Z</time></trkpt><trkpt lat="44.1019521" lon="7.8889598"><ele>1073.1666666666667</ele><time>2026-05-01T09:40:07.359Z</time></trkpt><trkpt lat="44.1018809" lon="7.8889095"><ele>1070.0</ele><time>2026-05-01T09:40:08.36Z</time></trkpt><trkpt lat="44.1018181" lon="7.8888309"><ele>1070.0</ele><time>2026-05-01T09:40:09.36Z</time></trkpt><trkpt lat="44.1017661" lon="7.8887445"><ele>1070.0</ele><time>2026-05-01T09:40:10.36Z</time></trkpt><trkpt lat="44.1017334" lon="7.8886476"><ele>1070.0</ele><time>2026-05-01T09:40:11.36Z</time></trkpt><trkpt lat="44.1017206" lon="7.8885555"><ele>1070.0</ele><time>2026-05-01T09:40:12.36Z</time></trkpt><trkpt lat="44.1017305" lon="7.8883953"><ele>1070.0</ele><time>2026-05-01T09:40:14.36Z</time></trkpt><trkpt lat="44.1016273" lon="7.8883759"><ele>1070.0</ele><time>2026-05-01T09:40:17.358Z</time></trkpt><trkpt lat="44.1014929" lon="7.8883702"><ele>1067.1666666666667</ele><time>2026-05-01T09:40:19.36Z</time></trkpt><trkpt lat="44.1014223" lon="7.888321"><ele>1064.3333333333335</ele><time>2026-05-01T09:40:20.36Z</time></trkpt><trkpt lat="44.1013466" lon="7.8882486"><ele>1061.5</ele><time>2026-05-01T09:40:21.36Z</time></trkpt><trkpt lat="44.1012463" lon="7.8881591"><ele>1058.6666666666667</ele><time>2026-05-01T09:40:22.359Z</time></trkpt><trkpt lat="44.1011867" lon="7.8881183"><ele>1055.8333333333333</ele><time>2026-05-01T09:40:23.359Z</time></trkpt><trkpt lat="44.1011276" lon="7.88805"><ele>1053.0</ele><time>2026-05-01T09:40:24.36Z</time></trkpt><trkpt lat="44.1010814" lon="7.8879631"><ele>1053.0</ele><time>2026-05-01T09:40:25.358Z</time></trkpt><trkpt lat="44.1010336" lon="7.8878804"><ele>1053.0</ele><time>2026-05-01T09:40:26.359Z</time></trkpt><trkpt lat="44.1009857" lon="7.8877645"><ele>1053.0</ele><time>2026-05-01T09:40:27.36Z</time></trkpt><trkpt lat="44.1009145" lon="7.8876783"><ele>1053.0</ele><time>2026-05-01T09:40:28.36Z</time></trkpt><trkpt lat="44.1008378" lon="7.8875857"><ele>1053.0</ele><time>2026-05-01T09:40:29.36Z</time></trkpt><trkpt lat="44.1007783" lon="7.8875005"><ele>1051.3333333333333</ele><time>2026-05-01T09:40:30.359Z</time></trkpt><trkpt lat="44.1007141" lon="7.8874163"><ele>1049.6666666666667</ele><time>2026-05-01T09:40:31.359Z</time></trkpt><trkpt lat="44.1006556" lon="7.8873165"><ele>1048.0</ele><time>2026-05-01T09:40:32.359Z</time></trkpt><trkpt lat="44.1005947" lon="7.8872469"><ele>1046.3333333333335</ele><time>2026-05-01T09:40:33.36Z</time></trkpt><trkpt lat="44.1005616" lon="7.8871284"><ele>1044.6666666666667</ele><time>2026-05-01T09:40:34.36Z</time></trkpt><trkpt lat="44.1005229" lon="7.8870473"><ele>1043.0</ele><time>2026-05-01T09:40:35.359Z</time></trkpt><trkpt lat="44.1004792" lon="7.8869699"><ele>1043.0</ele><time>2026-05-01T09:40:36.359Z</time></trkpt><trkpt lat="44.1004196" lon="7.8868875"><ele>1043.0</ele><time>2026-05-01T09:40:37.36Z</time></trkpt><trkpt lat="44.1003543" lon="7.8868639"><ele>1043.0</ele><time>2026-05-01T09:40:38.36Z</time></trkpt><trkpt lat="44.1002794" lon="7.8868614"><ele>1043.0</ele><time>2026-05-01T09:40:39.36Z</time></trkpt><trkpt lat="44.1001821" lon="7.8868918"><ele>1043.0</ele><time>2026-05-01T09:40:40.36Z</time></trkpt><trkpt lat="44.1000971" lon="7.8868604"><ele>1043.0</ele><time>2026-05-01T09:40:41.359Z</time></trkpt><trkpt lat="44.1000131" lon="7.8868467"><ele>1043.0</ele><time>2026-05-01T09:40:42.36Z</time></trkpt><trkpt lat="44.0999424" lon="7.8868199"><ele>1043.0</ele><time>2026-05-01T09:40:43.359Z</time></trkpt><trkpt lat="44.0998705" lon="7.8867955"><ele>1043.0</ele><time>2026-05-01T09:40:44.36Z</time></trkpt><trkpt lat="44.0997922" lon="7.8867679"><ele>1043.0</ele><time>2026-05-01T09:40:45.36Z</time></trkpt><trkpt lat="44.0997344" lon="7.8867265"><ele>1043.0</ele><time>2026-05-01T09:40:46.359Z</time></trkpt><trkpt lat="44.0996486" lon="7.8866903"><ele>1043.0</ele><time>2026-05-01T09:40:48.36Z</time></trkpt><trkpt lat="44.0995827" lon="7.8866842"><ele>1043.0</ele><time>2026-05-01T09:40:51.36Z</time></trkpt><trkpt lat="44.0995162" lon="7.8866597"><ele>1043.0</ele><time>2026-05-01T09:42:27.36Z</time></trkpt><trkpt lat="44.0995843" lon="7.8867502"><ele>1043.0</ele><time>2026-05-01T09:42:31.359Z</time></trkpt><trkpt lat="44.0996757" lon="7.8867959"><ele>1043.0</ele><time>2026-05-01T09:42:32.36Z</time></trkpt><trkpt lat="44.0997811" lon="7.8868383"><ele>1043.0</ele><time>2026-05-01T09:42:33.36Z</time></trkpt><trkpt lat="44.0998953" lon="7.8868753"><ele>1043.0</ele><time>2026-05-01T09:42:34.36Z</time></trkpt><trkpt lat="44.1000213" lon="7.8869072"><ele>1043.0</ele><time>2026-05-01T09:42:35.36Z</time></trkpt><trkpt lat="44.1001324" lon="7.886928"><ele>1043.0</ele><time>2026-05-01T09:42:36.359Z</time></trkpt><trkpt lat="44.1002175" lon="7.8869492"><ele>1043.0</ele><time>2026-05-01T09:42:37.36Z</time></trkpt><trkpt lat="44.1002897" lon="7.8869935"><ele>1043.0</ele><time>2026-05-01T09:42:38.36Z</time></trkpt><trkpt lat="44.1003504" lon="7.8870652"><ele>1043.0</ele><time>2026-05-01T09:42:39.36Z</time></trkpt><trkpt lat="44.1004028" lon="7.8871665"><ele>1043.0</ele><time>2026-05-01T09:42:40.36Z</time></trkpt><trkpt lat="44.1004523" lon="7.8873089"><ele>1043.0</ele><time>2026-05-01T09:42:41.359Z</time></trkpt><trkpt lat="44.1005022" lon="7.8874674"><ele>1043.0</ele><time>2026-05-01T09:42:42.358Z</time></trkpt><trkpt lat="44.1005501" lon="7.8876005"><ele>1043.0</ele><time>2026-05-01T09:42:43.359Z</time></trkpt><trkpt lat="44.1005943" lon="7.8877181"><ele>1043.0</ele><time>2026-05-01T09:42:44.36Z</time></trkpt><trkpt lat="44.100625" lon="7.887839"><ele>1043.0</ele><time>2026-05-01T09:42:45.36Z</time></trkpt><trkpt lat="44.1006387" lon="7.8879729"><ele>1040.4</ele><time>2026-05-01T09:42:46.36Z</time></trkpt><trkpt lat="44.1006415" lon="7.8881118"><ele>1037.8</ele><time>2026-05-01T09:42:47.36Z</time></trkpt><trkpt lat="44.1006256" lon="7.8882475"><ele>1035.2</ele><time>2026-05-01T09:42:48.36Z</time></trkpt><trkpt lat="44.1006057" lon="7.8883836"><ele>1032.6</ele><time>2026-05-01T09:42:49.36Z</time></trkpt><trkpt lat="44.1006001" lon="7.8884917"><ele>1030.0</ele><time>2026-05-01T09:42:50.359Z</time></trkpt><trkpt lat="44.1006071" lon="7.8886296"><ele>1029.0</ele><time>2026-05-01T09:42:52.36Z</time></trkpt><trkpt lat="44.1006259" lon="7.8887336"><ele>1028.0</ele><time>2026-05-01T09:42:54.36Z</time></trkpt><trkpt lat="44.1005948" lon="7.8888485"><ele>1027.0</ele><time>2026-05-01T09:42:56.359Z</time></trkpt><trkpt lat="44.1005113" lon="7.8889431"><ele>1026.0</ele><time>2026-05-01T09:42:58.359Z</time></trkpt><trkpt lat="44.1003938" lon="7.8889046"><ele>1025.0</ele><time>2026-05-01T09:43:00.36Z</time></trkpt><trkpt lat="44.1003446" lon="7.8888235"><ele>1025.0</ele><time>2026-05-01T09:43:01.36Z</time></trkpt><trkpt lat="44.1003024" lon="7.8887351"><ele>1025.0</ele><time>2026-05-01T09:43:02.359Z</time></trkpt><trkpt lat="44.1002835" lon="7.8886271"><ele>1025.0</ele><time>2026-05-01T09:43:03.359Z</time></trkpt><trkpt lat="44.1002761" lon="7.8885139"><ele>1025.0</ele><time>2026-05-01T09:43:04.359Z</time></trkpt><trkpt lat="44.1002652" lon="7.8883957"><ele>1025.0</ele><time>2026-05-01T09:43:05.36Z</time></trkpt><trkpt lat="44.1002658" lon="7.8882686"><ele>1025.0</ele><time>2026-05-01T09:43:06.36Z</time></trkpt><trkpt lat="44.1002702" lon="7.8881473"><ele>1025.8333333333335</ele><time>2026-05-01T09:43:07.36Z</time></trkpt><trkpt lat="44.1002751" lon="7.8880519"><ele>1026.6666666666667</ele><time>2026-05-01T09:43:08.36Z</time></trkpt><trkpt lat="44.1002653" lon="7.8879571"><ele>1027.5</ele><time>2026-05-01T09:43:09.36Z</time></trkpt><trkpt lat="44.1002322" lon="7.8878551"><ele>1028.3333333333333</ele><time>2026-05-01T09:43:10.36Z</time></trkpt><trkpt lat="44.1001842" lon="7.8877591"><ele>1029.1666666666665</ele><time>2026-05-01T09:43:11.359Z</time></trkpt><trkpt lat="44.1001223" lon="7.88769"><ele>1030.0</ele><time>2026-05-01T09:43:12.36Z</time></trkpt><trkpt lat="44.1000457" lon="7.8876394"><ele>1030.0</ele><time>2026-05-01T09:43:13.36Z</time></trkpt><trkpt lat="44.09997" lon="7.887601"><ele>1030.0</ele><time>2026-05-01T09:43:14.36Z</time></trkpt><trkpt lat="44.0998819" lon="7.8876004"><ele>1030.0</ele><time>2026-05-01T09:43:15.36Z</time></trkpt><trkpt lat="44.0997579" lon="7.8876872"><ele>1030.0</ele><time>2026-05-01T09:43:16.359Z</time></trkpt><trkpt lat="44.0996491" lon="7.8877671"><ele>1030.0</ele><time>2026-05-01T09:43:17.36Z</time></trkpt><trkpt lat="44.0995416" lon="7.8878505"><ele>1026.5</ele><time>2026-05-01T09:43:18.36Z</time></trkpt><trkpt lat="44.0994316" lon="7.887926"><ele>1023.0</ele><time>2026-05-01T09:43:19.36Z</time></trkpt><trkpt lat="44.0993142" lon="7.8879958"><ele>1019.5</ele><time>2026-05-01T09:43:20.36Z</time></trkpt><trkpt lat="44.0991957" lon="7.8880583"><ele>1016.0</ele><time>2026-05-01T09:43:21.36Z</time></trkpt><trkpt lat="44.0990762" lon="7.888091"><ele>1014.0</ele><time>2026-05-01T09:43:22.358Z</time></trkpt><trkpt lat="44.0989625" lon="7.8881002"><ele>1012.0</ele><time>2026-05-01T09:43:23.359Z</time></trkpt><trkpt lat="44.0988595" lon="7.8880675"><ele>1010.0</ele><time>2026-05-01T09:43:24.36Z</time></trkpt><trkpt lat="44.098747" lon="7.8880016"><ele>1008.0</ele><time>2026-05-01T09:43:25.36Z</time></trkpt><trkpt lat="44.0986487" lon="7.8879126"><ele>1008.0</ele><time>2026-05-01T09:43:26.36Z</time></trkpt><trkpt lat="44.098569" lon="7.8877818"><ele>1008.0</ele><time>2026-05-01T09:43:27.36Z</time></trkpt><trkpt lat="44.0984842" lon="7.8876618"><ele>1008.0</ele><time>2026-05-01T09:43:28.36Z</time></trkpt><trkpt lat="44.09841" lon="7.887561"><ele>1008.0</ele><time>2026-05-01T09:43:29.36Z</time></trkpt><trkpt lat="44.0983243" lon="7.8874463"><ele>1006.5</ele><time>2026-05-01T09:43:30.359Z</time></trkpt><trkpt lat="44.0982076" lon="7.8873688"><ele>1005.0</ele><time>2026-05-01T09:43:31.36Z</time></trkpt><trkpt lat="44.0981001" lon="7.8872962"><ele>1003.5</ele><time>2026-05-01T09:43:32.36Z</time></trkpt><trkpt lat="44.0979983" lon="7.8872203"><ele>1002.0</ele><time>2026-05-01T09:43:33.36Z</time></trkpt><trkpt lat="44.0979053" lon="7.8871292"><ele>1002.0</ele><time>2026-05-01T09:43:34.36Z</time></trkpt><trkpt lat="44.0978296" lon="7.8870267"><ele>1002.0</ele><time>2026-05-01T09:43:35.359Z</time></trkpt><trkpt lat="44.0977751" lon="7.8869279"><ele>1002.0</ele><time>2026-05-01T09:43:36.359Z</time></trkpt><trkpt lat="44.0977276" lon="7.8868365"><ele>1002.0</ele><time>2026-05-01T09:43:37.359Z</time></trkpt><trkpt lat="44.0976677" lon="7.8867735"><ele>1002.0</ele><time>2026-05-01T09:43:38.36Z</time></trkpt><trkpt lat="44.0976014" lon="7.8867491"><ele>1002.0</ele><time>2026-05-01T09:43:39.36Z</time></trkpt><trkpt lat="44.0975356" lon="7.8867439"><ele>1002.0</ele><time>2026-05-01T09:43:40.359Z</time></trkpt><trkpt lat="44.0974778" lon="7.8868344"><ele>1002.0</ele><time>2026-05-01T09:43:41.36Z</time></trkpt><trkpt lat="44.0974194" lon="7.886967"><ele>1002.0</ele><time>2026-05-01T09:43:42.359Z</time></trkpt><trkpt lat="44.0973646" lon="7.887099"><ele>1002.0</ele><time>2026-05-01T09:43:43.36Z</time></trkpt><trkpt lat="44.0973092" lon="7.8872051"><ele>1002.0</ele><time>2026-05-01T09:43:44.36Z</time></trkpt><trkpt lat="44.0972326" lon="7.8872796"><ele>1000.2</ele><time>2026-05-01T09:43:45.36Z</time></trkpt><trkpt lat="44.097146" lon="7.8873337"><ele>998.4000000000001</ele><time>2026-05-01T09:43:46.359Z</time></trkpt><trkpt lat="44.0970524" lon="7.8873682"><ele>996.5999999999999</ele><time>2026-05-01T09:43:47.36Z</time></trkpt><trkpt lat="44.096964" lon="7.8873659"><ele>994.8</ele><time>2026-05-01T09:43:48.36Z</time></trkpt><trkpt lat="44.09688" lon="7.8873182"><ele>993.0</ele><time>2026-05-01T09:43:49.36Z</time></trkpt><trkpt lat="44.0968047" lon="7.8872533"><ele>993.0</ele><time>2026-05-01T09:43:50.36Z</time></trkpt><trkpt lat="44.0967585" lon="7.8871452"><ele>993.0</ele><time>2026-05-01T09:43:51.36Z</time></trkpt><trkpt lat="44.0967348" lon="7.8870321"><ele>993.0</ele><time>2026-05-01T09:43:52.36Z</time></trkpt><trkpt lat="44.0967223" lon="7.8869163"><ele>993.0</ele><time>2026-05-01T09:43:53.36Z</time></trkpt><trkpt lat="44.0967097" lon="7.8868077"><ele>993.0</ele><time>2026-05-01T09:43:54.36Z</time></trkpt><trkpt lat="44.0966892" lon="7.8867176"><ele>993.0</ele><time>2026-05-01T09:43:55.36Z</time></trkpt><trkpt lat="44.096633" lon="7.8866671"><ele>991.6666666666666</ele><time>2026-05-01T09:43:56.359Z</time></trkpt><trkpt lat="44.0965706" lon="7.8866219"><ele>990.3333333333333</ele><time>2026-05-01T09:43:57.36Z</time></trkpt><trkpt lat="44.0964823" lon="7.8866336"><ele>989.0</ele><time>2026-05-01T09:43:58.36Z</time></trkpt><trkpt lat="44.0964012" lon="7.8866694"><ele>987.6666666666666</ele><time>2026-05-01T09:43:59.359Z</time></trkpt><trkpt lat="44.0963199" lon="7.886743"><ele>986.3333333333333</ele><time>2026-05-01T09:44:00.36Z</time></trkpt><trkpt lat="44.0962581" lon="7.8868464"><ele>985.0</ele><time>2026-05-01T09:44:01.359Z</time></trkpt><trkpt lat="44.0962037" lon="7.8869702"><ele>985.0</ele><time>2026-05-01T09:44:02.359Z</time></trkpt><trkpt lat="44.0961461" lon="7.8871088"><ele>985.0</ele><time>2026-05-01T09:44:03.36Z</time></trkpt><trkpt lat="44.0960746" lon="7.8872434"><ele>985.0</ele><time>2026-05-01T09:44:04.359Z</time></trkpt><trkpt lat="44.0960004" lon="7.8873681"><ele>985.0</ele><time>2026-05-01T09:44:05.36Z</time></trkpt><trkpt lat="44.0959251" lon="7.8874706"><ele>985.0</ele><time>2026-05-01T09:44:06.36Z</time></trkpt><trkpt lat="44.0958455" lon="7.8875496"><ele>985.0</ele><time>2026-05-01T09:44:07.359Z</time></trkpt><trkpt lat="44.0957591" lon="7.8876117"><ele>985.0</ele><time>2026-05-01T09:44:08.36Z</time></trkpt><trkpt lat="44.0956711" lon="7.887649"><ele>985.0</ele><time>2026-05-01T09:44:09.359Z</time></trkpt><trkpt lat="44.0955774" lon="7.8876546"><ele>985.0</ele><time>2026-05-01T09:44:10.36Z</time></trkpt><trkpt lat="44.0954859" lon="7.8876245"><ele>985.1666666666666</ele><time>2026-05-01T09:44:11.36Z</time></trkpt><trkpt lat="44.095406" lon="7.8875753"><ele>985.3333333333333</ele><time>2026-05-01T09:44:12.359Z</time></trkpt><trkpt lat="44.0953262" lon="7.8875514"><ele>985.5</ele><time>2026-05-01T09:44:13.36Z</time></trkpt><trkpt lat="44.0952382" lon="7.8875579"><ele>985.6666666666667</ele><time>2026-05-01T09:44:14.359Z</time></trkpt><trkpt lat="44.0951501" lon="7.8875783"><ele>985.8333333333334</ele><time>2026-05-01T09:44:15.36Z</time></trkpt><trkpt lat="44.095059" lon="7.8876233"><ele>986.0</ele><time>2026-05-01T09:44:16.36Z</time></trkpt><trkpt lat="44.0950069" lon="7.8877135"><ele>982.1999999999999</ele><time>2026-05-01T09:44:17.36Z</time></trkpt><trkpt lat="44.0949675" lon="7.8878325"><ele>978.3999999999999</ele><time>2026-05-01T09:44:18.359Z</time></trkpt><trkpt lat="44.0949312" lon="7.8879727"><ele>974.6</ele><time>2026-05-01T09:44:19.36Z</time></trkpt><trkpt lat="44.0948995" lon="7.8881113"><ele>970.8</ele><time>2026-05-01T09:44:20.359Z</time></trkpt><trkpt lat="44.0948612" lon="7.8882551"><ele>967.0</ele><time>2026-05-01T09:44:21.36Z</time></trkpt><trkpt lat="44.0948201" lon="7.8884172"><ele>962.6</ele><time>2026-05-01T09:44:22.36Z</time></trkpt><trkpt lat="44.0947858" lon="7.8885615"><ele>958.2</ele><time>2026-05-01T09:44:23.36Z</time></trkpt><trkpt lat="44.0947595" lon="7.8886977"><ele>953.8</ele><time>2026-05-01T09:44:24.359Z</time></trkpt><trkpt lat="44.0947233" lon="7.8888143"><ele>949.4</ele><time>2026-05-01T09:44:25.36Z</time></trkpt><trkpt lat="44.0946676" lon="7.8889046"><ele>945.0</ele><time>2026-05-01T09:44:26.359Z</time></trkpt><trkpt lat="44.094608" lon="7.888982"><ele>945.0</ele><time>2026-05-01T09:44:27.36Z</time></trkpt><trkpt lat="44.0945132" lon="7.8890012"><ele>945.0</ele><time>2026-05-01T09:44:28.36Z</time></trkpt><trkpt lat="44.0944163" lon="7.8889772"><ele>945.0</ele><time>2026-05-01T09:44:29.36Z</time></trkpt><trkpt lat="44.0943242" lon="7.8889303"><ele>945.0</ele><time>2026-05-01T09:44:30.359Z</time></trkpt><trkpt lat="44.0942386" lon="7.8888521"><ele>945.0</ele><time>2026-05-01T09:44:31.36Z</time></trkpt><trkpt lat="44.0941653" lon="7.8887219"><ele>945.0</ele><time>2026-05-01T09:44:32.36Z</time></trkpt><trkpt lat="44.0940987" lon="7.8885753"><ele>945.0</ele><time>2026-05-01T09:44:33.359Z</time></trkpt><trkpt lat="44.0940352" lon="7.8884431"><ele>945.0</ele><time>2026-05-01T09:44:34.36Z</time></trkpt><trkpt lat="44.0939667" lon="7.8883351"><ele>945.0</ele><time>2026-05-01T09:44:35.359Z</time></trkpt><trkpt lat="44.0938973" lon="7.8882494"><ele>945.0</ele><time>2026-05-01T09:44:36.359Z</time></trkpt><trkpt lat="44.0938242" lon="7.888184"><ele>946.2</ele><time>2026-05-01T09:44:37.359Z</time></trkpt><trkpt lat="44.0937437" lon="7.8881407"><ele>947.4</ele><time>2026-05-01T09:44:38.36Z</time></trkpt><trkpt lat="44.0936633" lon="7.8881097"><ele>948.5999999999999</ele><time>2026-05-01T09:44:39.36Z</time></trkpt><trkpt lat="44.0935529" lon="7.8881838"><ele>949.8</ele><time>2026-05-01T09:44:40.36Z</time></trkpt><trkpt lat="44.0934371" lon="7.8882643"><ele>951.0</ele><time>2026-05-01T09:44:41.359Z</time></trkpt><trkpt lat="44.0933133" lon="7.8883622"><ele>947.25</ele><time>2026-05-01T09:44:42.36Z</time></trkpt><trkpt lat="44.0931888" lon="7.88845"><ele>943.5</ele><time>2026-05-01T09:44:43.36Z</time></trkpt><trkpt lat="44.0930745" lon="7.8885274"><ele>939.75</ele><time>2026-05-01T09:44:44.36Z</time></trkpt><trkpt lat="44.0929701" lon="7.8886088"><ele>936.0</ele><time>2026-05-01T09:44:45.36Z</time></trkpt><trkpt lat="44.0928825" lon="7.8887016"><ele>936.0</ele><time>2026-05-01T09:44:46.36Z</time></trkpt><trkpt lat="44.0928057" lon="7.8888263"><ele>935.9999999999999</ele><time>2026-05-01T09:44:47.359Z</time></trkpt><trkpt lat="44.0927265" lon="7.8889216"><ele>935.9999999999999</ele><time>2026-05-01T09:44:48.36Z</time></trkpt><trkpt lat="44.0926425" lon="7.8890064"><ele>936.0</ele><time>2026-05-01T09:44:49.36Z</time></trkpt><trkpt lat="44.0925571" lon="7.8890947"><ele>936.0</ele><time>2026-05-01T09:44:50.36Z</time></trkpt><trkpt lat="44.0924848" lon="7.8891884"><ele>931.1999999999999</ele><time>2026-05-01T09:44:51.36Z</time></trkpt><trkpt lat="44.092416" lon="7.8893083"><ele>926.3999999999999</ele><time>2026-05-01T09:44:52.36Z</time></trkpt><trkpt lat="44.0923487" lon="7.889449"><ele>921.6</ele><time>2026-05-01T09:44:53.359Z</time></trkpt><trkpt lat="44.0922863" lon="7.889576"><ele>916.8</ele><time>2026-05-01T09:44:54.36Z</time></trkpt><trkpt lat="44.0922252" lon="7.8896945"><ele>912.0</ele><time>2026-05-01T09:44:55.36Z</time></trkpt><trkpt lat="44.0921627" lon="7.8897931"><ele>912.0</ele><time>2026-05-01T09:44:56.36Z</time></trkpt><trkpt lat="44.092091" lon="7.8898602"><ele>912.0</ele><time>2026-05-01T09:44:57.36Z</time></trkpt><trkpt lat="44.0920213" lon="7.8899111"><ele>912.0</ele><time>2026-05-01T09:44:58.36Z</time></trkpt><trkpt lat="44.0919651" lon="7.8899704"><ele>912.0</ele><time>2026-05-01T09:44:59.36Z</time></trkpt><trkpt lat="44.091946" lon="7.8900999"><ele>912.0</ele><time>2026-05-01T09:45:01.36Z</time></trkpt><trkpt lat="44.0920303" lon="7.8901787"><ele>912.0</ele><time>2026-05-01T09:45:03.36Z</time></trkpt><trkpt lat="44.0921018" lon="7.8901688"><ele>912.0</ele><time>2026-05-01T09:45:04.36Z</time></trkpt><trkpt lat="44.0921813" lon="7.8901387"><ele>912.0</ele><time>2026-05-01T09:45:05.36Z</time></trkpt><trkpt lat="44.0922627" lon="7.8900602"><ele>912.0</ele><time>2026-05-01T09:45:06.359Z</time></trkpt><trkpt lat="44.0923506" lon="7.8899627"><ele>912.0</ele><time>2026-05-01T09:45:07.36Z</time></trkpt><trkpt lat="44.0924388" lon="7.8898617"><ele>912.0</ele><time>2026-05-01T09:45:08.359Z</time></trkpt><trkpt lat="44.0925278" lon="7.8897588"><ele>911.6</ele><time>2026-05-01T09:45:09.359Z</time></trkpt><trkpt lat="44.0926212" lon="7.8896537"><ele>911.2</ele><time>2026-05-01T09:45:10.36Z</time></trkpt><trkpt lat="44.0927225" lon="7.8895692"><ele>910.8</ele><time>2026-05-01T09:45:11.36Z</time></trkpt><trkpt lat="44.0928273" lon="7.8895182"><ele>910.4</ele><time>2026-05-01T09:45:12.359Z</time></trkpt><trkpt lat="44.0929225" lon="7.889484"><ele>910.0</ele><time>2026-05-01T09:45:13.36Z</time></trkpt><trkpt lat="44.0930196" lon="7.88946"><ele>909.9999999999999</ele><time>2026-05-01T09:45:14.36Z</time></trkpt><trkpt lat="44.0930886" lon="7.8894664"><ele>910.0</ele><time>2026-05-01T09:45:15.359Z</time></trkpt><trkpt lat="44.0931491" lon="7.8894971"><ele>910.0</ele><time>2026-05-01T09:45:16.359Z</time></trkpt><trkpt lat="44.0932295" lon="7.8896214"><ele>910.0</ele><time>2026-05-01T09:45:18.359Z</time></trkpt><trkpt lat="44.0932346" lon="7.8897199"><ele>909.9999999999999</ele><time>2026-05-01T09:45:19.36Z</time></trkpt><trkpt lat="44.0932152" lon="7.8898317"><ele>910.0</ele><time>2026-05-01T09:45:20.359Z</time></trkpt><trkpt lat="44.0932021" lon="7.8899505"><ele>906.5</ele><time>2026-05-01T09:45:21.36Z</time></trkpt><trkpt lat="44.0931481" lon="7.8901115"><ele>903.0</ele><time>2026-05-01T09:45:22.36Z</time></trkpt><trkpt lat="44.0930891" lon="7.8902733"><ele>899.5</ele><time>2026-05-01T09:45:23.359Z</time></trkpt><trkpt lat="44.0930361" lon="7.8904307"><ele>896.0</ele><time>2026-05-01T09:45:24.359Z</time></trkpt><trkpt lat="44.0929823" lon="7.8905735"><ele>896.0</ele><time>2026-05-01T09:45:25.36Z</time></trkpt><trkpt lat="44.0929318" lon="7.8907121"><ele>895.9999999999999</ele><time>2026-05-01T09:45:26.36Z</time></trkpt><trkpt lat="44.09287" lon="7.8908432"><ele>895.9999999999999</ele><time>2026-05-01T09:45:27.36Z</time></trkpt><trkpt lat="44.0928273" lon="7.8909581"><ele>896.0</ele><time>2026-05-01T09:45:28.36Z</time></trkpt><trkpt lat="44.0928009" lon="7.891063"><ele>896.0</ele><time>2026-05-01T09:45:29.359Z</time></trkpt><trkpt lat="44.0928004" lon="7.891162"><ele>894.4</ele><time>2026-05-01T09:45:30.359Z</time></trkpt><trkpt lat="44.0928035" lon="7.8912571"><ele>892.8</ele><time>2026-05-01T09:45:31.36Z</time></trkpt><trkpt lat="44.0928649" lon="7.8913231"><ele>891.1999999999999</ele><time>2026-05-01T09:45:32.36Z</time></trkpt><trkpt lat="44.0929281" lon="7.8913901"><ele>889.5999999999999</ele><time>2026-05-01T09:45:33.359Z</time></trkpt><trkpt lat="44.0930616" lon="7.8913527"><ele>888.0</ele><time>2026-05-01T09:45:34.36Z</time></trkpt><trkpt lat="44.0931854" lon="7.8912896"><ele>889.0</ele><time>2026-05-01T09:45:35.36Z</time></trkpt><trkpt lat="44.0933014" lon="7.891205"><ele>890.0</ele><time>2026-05-01T09:45:36.36Z</time></trkpt><trkpt lat="44.0934022" lon="7.8911311"><ele>891.0</ele><time>2026-05-01T09:45:37.359Z</time></trkpt><trkpt lat="44.093486" lon="7.8910785"><ele>892.0</ele><time>2026-05-01T09:45:38.36Z</time></trkpt><trkpt lat="44.0935734" lon="7.8910401"><ele>893.0</ele><time>2026-05-01T09:45:39.36Z</time></trkpt><trkpt lat="44.0936864" lon="7.891061"><ele>893.0</ele><time>2026-05-01T09:45:41.36Z</time></trkpt><trkpt lat="44.093728" lon="7.8911936"><ele>893.0</ele><time>2026-05-01T09:45:43.358Z</time></trkpt><trkpt lat="44.0936541" lon="7.8913962"><ele>893.0</ele><time>2026-05-01T09:45:45.36Z</time></trkpt><trkpt lat="44.0935819" lon="7.8915423"><ele>893.0</ele><time>2026-05-01T09:45:46.359Z</time></trkpt><trkpt lat="44.0935196" lon="7.8916901"><ele>891.8333333333334</ele><time>2026-05-01T09:45:47.36Z</time></trkpt><trkpt lat="44.0934718" lon="7.8918284"><ele>890.6666666666667</ele><time>2026-05-01T09:45:48.359Z</time></trkpt><trkpt lat="44.0934345" lon="7.8919577"><ele>889.5</ele><time>2026-05-01T09:45:49.359Z</time></trkpt><trkpt lat="44.0934037" lon="7.8920717"><ele>888.3333333333333</ele><time>2026-05-01T09:45:50.359Z</time></trkpt><trkpt lat="44.0933601" lon="7.8921588"><ele>887.1666666666666</ele><time>2026-05-01T09:45:51.36Z</time></trkpt><trkpt lat="44.0933057" lon="7.8922298"><ele>886.0</ele><time>2026-05-01T09:45:52.36Z</time></trkpt><trkpt lat="44.0932351" lon="7.8922994"><ele>883.8</ele><time>2026-05-01T09:45:53.36Z</time></trkpt><trkpt lat="44.0931581" lon="7.8923694"><ele>881.5999999999999</ele><time>2026-05-01T09:45:54.36Z</time></trkpt><trkpt lat="44.0930788" lon="7.8924377"><ele>879.4</ele><time>2026-05-01T09:45:55.359Z</time></trkpt><trkpt lat="44.0930048" lon="7.8925161"><ele>877.2</ele><time>2026-05-01T09:45:56.36Z</time></trkpt><trkpt lat="44.0929783" lon="7.8926517"><ele>875.0</ele><time>2026-05-01T09:45:57.36Z</time></trkpt><trkpt lat="44.0929802" lon="7.8927782"><ele>874.0</ele><time>2026-05-01T09:45:58.359Z</time></trkpt><trkpt lat="44.0929884" lon="7.8929105"><ele>873.0</ele><time>2026-05-01T09:45:59.36Z</time></trkpt><trkpt lat="44.0930375" lon="7.8930372"><ele>872.0</ele><time>2026-05-01T09:46:00.36Z</time></trkpt><trkpt lat="44.0930954" lon="7.8931412"><ele>871.0</ele><time>2026-05-01T09:46:01.36Z</time></trkpt><trkpt lat="44.0931498" lon="7.8932485"><ele>870.0</ele><time>2026-05-01T09:46:02.359Z</time></trkpt><trkpt lat="44.0931799" lon="7.8933792"><ele>868.0</ele><time>2026-05-01T09:46:03.359Z</time></trkpt><trkpt lat="44.0931888" lon="7.8935243"><ele>866.0</ele><time>2026-05-01T09:46:04.359Z</time></trkpt><trkpt lat="44.0931795" lon="7.893677"><ele>864.0</ele><time>2026-05-01T09:46:05.359Z</time></trkpt><trkpt lat="44.093176" lon="7.8938384"><ele>862.0</ele><time>2026-05-01T09:46:06.36Z</time></trkpt><trkpt lat="44.0931766" lon="7.8939968"><ele>860.0</ele><time>2026-05-01T09:46:07.359Z</time></trkpt><trkpt lat="44.0931845" lon="7.8941541"><ele>857.6666666666667</ele><time>2026-05-01T09:46:08.358Z</time></trkpt><trkpt lat="44.0931843" lon="7.8942862"><ele>855.3333333333334</ele><time>2026-05-01T09:46:09.359Z</time></trkpt><trkpt lat="44.0931665" lon="7.8944034"><ele>853.0</ele><time>2026-05-01T09:46:10.359Z</time></trkpt><trkpt lat="44.0931402" lon="7.8945188"><ele>850.6666666666667</ele><time>2026-05-01T09:46:11.36Z</time></trkpt><trkpt lat="44.0931174" lon="7.8946296"><ele>848.3333333333334</ele><time>2026-05-01T09:46:12.36Z</time></trkpt><trkpt lat="44.0931136" lon="7.8947385"><ele>846.0</ele><time>2026-05-01T09:46:13.36Z</time></trkpt><trkpt lat="44.0931409" lon="7.8948489"><ele>846.0</ele><time>2026-05-01T09:46:14.359Z</time></trkpt><trkpt lat="44.0931789" lon="7.8949669"><ele>846.0</ele><time>2026-05-01T09:46:15.36Z</time></trkpt><trkpt lat="44.0932511" lon="7.8950556"><ele>846.0</ele><time>2026-05-01T09:46:16.36Z</time></trkpt><trkpt lat="44.0933309" lon="7.8951149"><ele>846.0</ele><time>2026-05-01T09:46:17.36Z</time></trkpt><trkpt lat="44.0934187" lon="7.8951475"><ele>846.0</ele><time>2026-05-01T09:46:18.36Z</time></trkpt><trkpt lat="44.0934895" lon="7.8951927"><ele>846.0</ele><time>2026-05-01T09:46:19.36Z</time></trkpt><trkpt lat="44.0935386" lon="7.8952661"><ele>845.5</ele><time>2026-05-01T09:46:20.36Z</time></trkpt><trkpt lat="44.0935587" lon="7.8953523"><ele>845.0</ele><time>2026-05-01T09:46:21.36Z</time></trkpt><trkpt lat="44.0935513" lon="7.8954453"><ele>844.5</ele><time>2026-05-01T09:46:22.359Z</time></trkpt><trkpt lat="44.0935092" lon="7.8955404"><ele>844.0</ele><time>2026-05-01T09:46:23.36Z</time></trkpt><trkpt lat="44.0934403" lon="7.895632"><ele>843.5</ele><time>2026-05-01T09:46:24.36Z</time></trkpt><trkpt lat="44.0933559" lon="7.8957011"><ele>843.0</ele><time>2026-05-01T09:46:25.359Z</time></trkpt><trkpt lat="44.0932596" lon="7.8957389"><ele>839.4</ele><time>2026-05-01T09:46:26.359Z</time></trkpt><trkpt lat="44.0931604" lon="7.8957711"><ele>835.8</ele><time>2026-05-01T09:46:27.359Z</time></trkpt><trkpt lat="44.0930702" lon="7.8957961"><ele>832.2</ele><time>2026-05-01T09:46:28.358Z</time></trkpt><trkpt lat="44.0929811" lon="7.8957899"><ele>828.6</ele><time>2026-05-01T09:46:29.36Z</time></trkpt><trkpt lat="44.0928894" lon="7.8957649"><ele>825.0</ele><time>2026-05-01T09:46:30.36Z</time></trkpt><trkpt lat="44.0928039" lon="7.8957027"><ele>825.0</ele><time>2026-05-01T09:46:31.36Z</time></trkpt><trkpt lat="44.092723" lon="7.8956117"><ele>825.0</ele><time>2026-05-01T09:46:32.36Z</time></trkpt><trkpt lat="44.0926449" lon="7.8955129"><ele>825.0</ele><time>2026-05-01T09:46:33.358Z</time></trkpt><trkpt lat="44.0925805" lon="7.8954135"><ele>825.0</ele><time>2026-05-01T09:46:34.36Z</time></trkpt><trkpt lat="44.0925356" lon="7.8953083"><ele>825.0</ele><time>2026-05-01T09:46:35.358Z</time></trkpt><trkpt lat="44.0925007" lon="7.8952003"><ele>825.0</ele><time>2026-05-01T09:46:36.36Z</time></trkpt><trkpt lat="44.0924541" lon="7.8951041"><ele>825.0</ele><time>2026-05-01T09:46:37.36Z</time></trkpt><trkpt lat="44.0923958" lon="7.89502"><ele>825.0</ele><time>2026-05-01T09:46:38.36Z</time></trkpt><trkpt lat="44.0923073" lon="7.8949551"><ele>825.0</ele><time>2026-05-01T09:46:39.36Z</time></trkpt><trkpt lat="44.0922061" lon="7.8949045"><ele>825.0</ele><time>2026-05-01T09:46:40.36Z</time></trkpt><trkpt lat="44.0921026" lon="7.8948557"><ele>824.6</ele><time>2026-05-01T09:46:41.36Z</time></trkpt><trkpt lat="44.0920264" lon="7.894787"><ele>824.2</ele><time>2026-05-01T09:46:42.36Z</time></trkpt><trkpt lat="44.0919498" lon="7.8947068"><ele>823.8</ele><time>2026-05-01T09:46:43.36Z</time></trkpt><trkpt lat="44.0918873" lon="7.8946139"><ele>823.4</ele><time>2026-05-01T09:46:44.36Z</time></trkpt><trkpt lat="44.091843" lon="7.8944893"><ele>823.0</ele><time>2026-05-01T09:46:45.36Z</time></trkpt><trkpt lat="44.0918076" lon="7.8943744"><ele>822.9999999999999</ele><time>2026-05-01T09:46:46.36Z</time></trkpt><trkpt lat="44.0917728" lon="7.8942697"><ele>823.0</ele><time>2026-05-01T09:46:47.36Z</time></trkpt><trkpt lat="44.0917393" lon="7.8941688"><ele>823.0</ele><time>2026-05-01T09:46:48.36Z</time></trkpt><trkpt lat="44.0917048" lon="7.8940873"><ele>823.0</ele><time>2026-05-01T09:46:49.36Z</time></trkpt><trkpt lat="44.0915911" lon="7.8940505"><ele>822.9999999999999</ele><time>2026-05-01T09:46:51.359Z</time></trkpt><trkpt lat="44.0915186" lon="7.8940888"><ele>823.0</ele><time>2026-05-01T09:46:52.359Z</time></trkpt><trkpt lat="44.0914405" lon="7.894149"><ele>821.1666666666666</ele><time>2026-05-01T09:46:53.36Z</time></trkpt><trkpt lat="44.0913613" lon="7.8942119"><ele>819.3333333333333</ele><time>2026-05-01T09:46:54.359Z</time></trkpt><trkpt lat="44.0912819" lon="7.8942471"><ele>817.5</ele><time>2026-05-01T09:46:55.36Z</time></trkpt><trkpt lat="44.0912001" lon="7.8942524"><ele>815.6666666666667</ele><time>2026-05-01T09:46:56.36Z</time></trkpt><trkpt lat="44.0911208" lon="7.8942215"><ele>813.8333333333334</ele><time>2026-05-01T09:46:57.36Z</time></trkpt><trkpt lat="44.0910461" lon="7.8941739"><ele>812.0</ele><time>2026-05-01T09:46:58.36Z</time></trkpt><trkpt lat="44.0909992" lon="7.8940767"><ele>812.0</ele><time>2026-05-01T09:46:59.359Z</time></trkpt><trkpt lat="44.0909798" lon="7.8939563"><ele>812.0</ele><time>2026-05-01T09:47:00.36Z</time></trkpt><trkpt lat="44.0909681" lon="7.8938376"><ele>812.0</ele><time>2026-05-01T09:47:01.36Z</time></trkpt><trkpt lat="44.0909505" lon="7.8937142"><ele>812.0</ele><time>2026-05-01T09:47:02.359Z</time></trkpt><trkpt lat="44.0909361" lon="7.893591"><ele>812.0</ele><time>2026-05-01T09:47:03.359Z</time></trkpt><trkpt lat="44.0908856" lon="7.8934722"><ele>812.0</ele><time>2026-05-01T09:47:04.36Z</time></trkpt><trkpt lat="44.0907599" lon="7.8933988"><ele>812.0</ele><time>2026-05-01T09:47:05.36Z</time></trkpt><trkpt lat="44.0906585" lon="7.8932877"><ele>812.0</ele><time>2026-05-01T09:47:06.36Z</time></trkpt><trkpt lat="44.0906276" lon="7.893193"><ele>812.0</ele><time>2026-05-01T09:47:07.36Z</time></trkpt><trkpt lat="44.0906209" lon="7.8930728"><ele>812.0</ele><time>2026-05-01T09:47:08.36Z</time></trkpt><trkpt lat="44.0905832" lon="7.8929673"><ele>812.0000000000001</ele><time>2026-05-01T09:47:09.36Z</time></trkpt><trkpt lat="44.090568" lon="7.892881"><ele>812.0</ele><time>2026-05-01T09:47:10.36Z</time></trkpt><trkpt lat="44.0905554" lon="7.8927873"><ele>812.0</ele><time>2026-05-01T09:47:11.36Z</time></trkpt><trkpt lat="44.0905004" lon="7.8926382"><ele>812.0</ele><time>2026-05-01T09:47:13.36Z</time></trkpt><trkpt lat="44.0904453" lon="7.8925743"><ele>812.0000000000001</ele><time>2026-05-01T09:47:14.36Z</time></trkpt><trkpt lat="44.0903491" lon="7.892571"><ele>812.0</ele><time>2026-05-01T09:47:16.36Z</time></trkpt><trkpt lat="44.0902323" lon="7.8926638"><ele>812.0000000000001</ele><time>2026-05-01T09:47:18.359Z</time></trkpt><trkpt lat="44.09015" lon="7.892716"><ele>812.0</ele><time>2026-05-01T09:47:19.36Z</time></trkpt><trkpt lat="44.0900616" lon="7.8927394"><ele>812.0</ele><time>2026-05-01T09:47:20.36Z</time></trkpt><trkpt lat="44.0899857" lon="7.8927663"><ele>812.0</ele><time>2026-05-01T09:47:21.359Z</time></trkpt><trkpt lat="44.0899143" lon="7.8927643"><ele>812.0000000000001</ele><time>2026-05-01T09:47:22.359Z</time></trkpt><trkpt lat="44.0898387" lon="7.8927754"><ele>812.0</ele><time>2026-05-01T09:47:23.36Z</time></trkpt><trkpt lat="44.0897617" lon="7.8928664"><ele>816.0000000000001</ele><time>2026-05-01T09:47:25.36Z</time></trkpt><trkpt lat="44.0897395" lon="7.8930001"><ele>820.0</ele><time>2026-05-01T09:47:27.359Z</time></trkpt><trkpt lat="44.089761" lon="7.893104"><ele>824.0</ele><time>2026-05-01T09:47:28.36Z</time></trkpt><trkpt lat="44.0898067" lon="7.8931957"><ele>828.0</ele><time>2026-05-01T09:47:29.36Z</time></trkpt><trkpt lat="44.089825" lon="7.8932855"><ele>832.0000000000001</ele><time>2026-05-01T09:47:30.359Z</time></trkpt><trkpt lat="44.0898223" lon="7.8933951"><ele>836.0</ele><time>2026-05-01T09:47:31.36Z</time></trkpt><trkpt lat="44.0898097" lon="7.8935101"><ele>836.0</ele><time>2026-05-01T09:47:32.36Z</time></trkpt><trkpt lat="44.0897722" lon="7.8936452"><ele>836.0</ele><time>2026-05-01T09:47:33.359Z</time></trkpt><trkpt lat="44.089735" lon="7.8937672"><ele>836.0</ele><time>2026-05-01T09:47:34.359Z</time></trkpt><trkpt lat="44.0896765" lon="7.8938821"><ele>836.0</ele><time>2026-05-01T09:47:35.36Z</time></trkpt><trkpt lat="44.0896202" lon="7.8939945"><ele>836.0</ele><time>2026-05-01T09:47:36.36Z</time></trkpt><trkpt lat="44.089541" lon="7.8940594"><ele>836.0</ele><time>2026-05-01T09:47:37.36Z</time></trkpt><trkpt lat="44.0894789" lon="7.8941445"><ele>836.0</ele><time>2026-05-01T09:47:38.36Z</time></trkpt><trkpt lat="44.0894317" lon="7.8942393"><ele>836.0</ele><time>2026-05-01T09:47:39.359Z</time></trkpt><trkpt lat="44.0893836" lon="7.8943533"><ele>836.0</ele><time>2026-05-01T09:47:40.36Z</time></trkpt><trkpt lat="44.0893597" lon="7.8944916"><ele>836.0</ele><time>2026-05-01T09:47:41.36Z</time></trkpt><trkpt lat="44.0893169" lon="7.8946222"><ele>839.8</ele><time>2026-05-01T09:47:42.36Z</time></trkpt><trkpt lat="44.0892563" lon="7.8947405"><ele>843.5999999999999</ele><time>2026-05-01T09:47:43.359Z</time></trkpt><trkpt lat="44.0891991" lon="7.8948516"><ele>847.4</ele><time>2026-05-01T09:47:44.36Z</time></trkpt><trkpt lat="44.0891335" lon="7.8949592"><ele>851.2</ele><time>2026-05-01T09:47:45.36Z</time></trkpt><trkpt lat="44.0890768" lon="7.8950417"><ele>855.0</ele><time>2026-05-01T09:47:46.359Z</time></trkpt><trkpt lat="44.0889976" lon="7.895106"><ele>848.6666666666666</ele><time>2026-05-01T09:47:47.359Z</time></trkpt><trkpt lat="44.0889199" lon="7.8951751"><ele>842.3333333333333</ele><time>2026-05-01T09:47:48.359Z</time></trkpt><trkpt lat="44.0888436" lon="7.8952162"><ele>836.0</ele><time>2026-05-01T09:47:49.36Z</time></trkpt><trkpt lat="44.0887691" lon="7.8952764"><ele>829.6666666666666</ele><time>2026-05-01T09:47:50.359Z</time></trkpt><trkpt lat="44.0887042" lon="7.8953389"><ele>823.3333333333333</ele><time>2026-05-01T09:47:51.36Z</time></trkpt><trkpt lat="44.088647" lon="7.8954156"><ele>817.0</ele><time>2026-05-01T09:47:52.359Z</time></trkpt><trkpt lat="44.0886549" lon="7.8955341"><ele>816.9999999999999</ele><time>2026-05-01T09:47:53.36Z</time></trkpt><trkpt lat="44.088664" lon="7.89563"><ele>817.0</ele><time>2026-05-01T09:47:54.36Z</time></trkpt><trkpt lat="44.0886642" lon="7.8957311"><ele>817.0</ele><time>2026-05-01T09:47:55.36Z</time></trkpt><trkpt lat="44.088692" lon="7.8958228"><ele>817.0</ele><time>2026-05-01T09:47:56.36Z</time></trkpt><trkpt lat="44.0886846" lon="7.8959384"><ele>817.0</ele><time>2026-05-01T09:47:57.36Z</time></trkpt><trkpt lat="44.0886728" lon="7.8960381"><ele>816.9999999999999</ele><time>2026-05-01T09:47:58.36Z</time></trkpt><trkpt lat="44.0886317" lon="7.8961264"><ele>817.0</ele><time>2026-05-01T09:47:59.36Z</time></trkpt><trkpt lat="44.0885962" lon="7.8962168"><ele>820.4999999999999</ele><time>2026-05-01T09:48:00.36Z</time></trkpt><trkpt lat="44.0885446" lon="7.8963259"><ele>824.0</ele><time>2026-05-01T09:48:01.36Z</time></trkpt><trkpt lat="44.0884779" lon="7.8964125"><ele>827.5</ele><time>2026-05-01T09:48:02.359Z</time></trkpt><trkpt lat="44.0884227" lon="7.896509"><ele>831.0</ele><time>2026-05-01T09:48:03.36Z</time></trkpt><trkpt lat="44.0883585" lon="7.8965673"><ele>834.4999999999999</ele><time>2026-05-01T09:48:04.36Z</time></trkpt><trkpt lat="44.0882879" lon="7.8966234"><ele>838.0</ele><time>2026-05-01T09:48:05.36Z</time></trkpt><trkpt lat="44.0882115" lon="7.8966549"><ele>838.0</ele><time>2026-05-01T09:48:06.36Z</time></trkpt><trkpt lat="44.0881386" lon="7.8966921"><ele>838.0</ele><time>2026-05-01T09:48:07.36Z</time></trkpt><trkpt lat="44.0880219" lon="7.8967089"><ele>838.0</ele><time>2026-05-01T09:48:09.359Z</time></trkpt><trkpt lat="44.0879619" lon="7.8967383"><ele>838.0</ele><time>2026-05-01T09:48:10.359Z</time></trkpt><trkpt lat="44.087954" lon="7.8968878"><ele>838.0</ele><time>2026-05-01T09:48:11.359Z</time></trkpt><trkpt lat="44.0878864" lon="7.8970262"><ele>833.8333333333333</ele><time>2026-05-01T09:48:13.36Z</time></trkpt><trkpt lat="44.0878431" lon="7.8971906"><ele>829.6666666666666</ele><time>2026-05-01T09:48:15.36Z</time></trkpt><trkpt lat="44.0878511" lon="7.8972868"><ele>825.5</ele><time>2026-05-01T09:48:16.36Z</time></trkpt><trkpt lat="44.0878641" lon="7.8973812"><ele>821.3333333333333</ele><time>2026-05-01T09:48:17.358Z</time></trkpt><trkpt lat="44.0878918" lon="7.8974813"><ele>817.1666666666666</ele><time>2026-05-01T09:48:18.36Z</time></trkpt><trkpt lat="44.0878995" lon="7.8975807"><ele>813.0</ele><time>2026-05-01T09:48:19.36Z</time></trkpt><trkpt lat="44.0878964" lon="7.8976945"><ele>809.5</ele><time>2026-05-01T09:48:20.359Z</time></trkpt><trkpt lat="44.0878609" lon="7.8978113"><ele>806.0</ele><time>2026-05-01T09:48:21.36Z</time></trkpt><trkpt lat="44.0878556" lon="7.8979143"><ele>802.5</ele><time>2026-05-01T09:48:22.359Z</time></trkpt><trkpt lat="44.0877633" lon="7.8980415"><ele>799.0</ele><time>2026-05-01T09:48:24.359Z</time></trkpt><trkpt lat="44.0876961" lon="7.898096"><ele>795.5</ele><time>2026-05-01T09:48:25.36Z</time></trkpt><trkpt lat="44.0876392" lon="7.8981596"><ele>792.0</ele><time>2026-05-01T09:48:26.359Z</time></trkpt><trkpt lat="44.0876037" lon="7.8982538"><ele>792.0</ele><time>2026-05-01T09:48:27.359Z</time></trkpt><trkpt lat="44.0875834" lon="7.8983831"><ele>792.0</ele><time>2026-05-01T09:48:28.36Z</time></trkpt><trkpt lat="44.0875812" lon="7.8985218"><ele>792.0</ele><time>2026-05-01T09:48:29.36Z</time></trkpt><trkpt lat="44.0875729" lon="7.8986571"><ele>792.0</ele><time>2026-05-01T09:48:30.36Z</time></trkpt><trkpt lat="44.0875748" lon="7.8987754"><ele>792.0</ele><time>2026-05-01T09:48:31.36Z</time></trkpt><trkpt lat="44.0875704" lon="7.8989575"><ele>792.1666666666666</ele><time>2026-05-01T09:48:33.36Z</time></trkpt><trkpt lat="44.0875298" lon="7.8990338"><ele>792.3333333333333</ele><time>2026-05-01T09:48:34.36Z</time></trkpt><trkpt lat="44.0874671" lon="7.8991045"><ele>792.5</ele><time>2026-05-01T09:48:35.359Z</time></trkpt><trkpt lat="44.0874139" lon="7.89918"><ele>792.6666666666666</ele><time>2026-05-01T09:48:36.36Z</time></trkpt><trkpt lat="44.0873573" lon="7.8992907"><ele>792.8333333333333</ele><time>2026-05-01T09:48:37.36Z</time></trkpt><trkpt lat="44.08731" lon="7.8994088"><ele>793.0</ele><time>2026-05-01T09:48:38.36Z</time></trkpt><trkpt lat="44.0872709" lon="7.8995011"><ele>792.9999999999999</ele><time>2026-05-01T09:48:39.36Z</time></trkpt><trkpt lat="44.0872335" lon="7.8995756"><ele>793.0</ele><time>2026-05-01T09:48:40.36Z</time></trkpt><trkpt lat="44.0871701" lon="7.8996477"><ele>793.0</ele><time>2026-05-01T09:48:41.36Z</time></trkpt><trkpt lat="44.0870866" lon="7.8996942"><ele>793.0</ele><time>2026-05-01T09:48:42.359Z</time></trkpt><trkpt lat="44.0870032" lon="7.8997353"><ele>792.9999999999999</ele><time>2026-05-01T09:48:43.36Z</time></trkpt><trkpt lat="44.0869302" lon="7.8997929"><ele>793.0</ele><time>2026-05-01T09:48:44.36Z</time></trkpt><trkpt lat="44.0868722" lon="7.8998611"><ele>792.9999999999999</ele><time>2026-05-01T09:48:45.359Z</time></trkpt><trkpt lat="44.086837" lon="7.8999588"><ele>793.0</ele><time>2026-05-01T09:48:46.359Z</time></trkpt><trkpt lat="44.0868031" lon="7.9000533"><ele>793.0</ele><time>2026-05-01T09:48:47.36Z</time></trkpt><trkpt lat="44.0867772" lon="7.9001571"><ele>793.0</ele><time>2026-05-01T09:48:48.359Z</time></trkpt><trkpt lat="44.0868509" lon="7.9002115"><ele>792.9999999999999</ele><time>2026-05-01T09:48:49.36Z</time></trkpt><trkpt lat="44.086889" lon="7.9003004"><ele>793.0</ele><time>2026-05-01T09:48:50.359Z</time></trkpt><trkpt lat="44.0869395" lon="7.9003986"><ele>791.4999999999999</ele><time>2026-05-01T09:48:51.36Z</time></trkpt><trkpt lat="44.0869744" lon="7.9004955"><ele>790.0</ele><time>2026-05-01T09:48:52.36Z</time></trkpt><trkpt lat="44.0870268" lon="7.9005875"><ele>788.5</ele><time>2026-05-01T09:48:53.359Z</time></trkpt><trkpt lat="44.0870779" lon="7.9006748"><ele>787.0</ele><time>2026-05-01T09:48:54.36Z</time></trkpt><trkpt lat="44.0871173" lon="7.9007516"><ele>785.4999999999999</ele><time>2026-05-01T09:48:55.36Z</time></trkpt><trkpt lat="44.0871294" lon="7.9008942"><ele>784.0</ele><time>2026-05-01T09:48:57.36Z</time></trkpt><trkpt lat="44.0870541" lon="7.9010315"><ele>781.3333333333333</ele><time>2026-05-01T09:48:59.36Z</time></trkpt><trkpt lat="44.0869974" lon="7.9010743"><ele>778.6666666666666</ele><time>2026-05-01T09:49:00.359Z</time></trkpt><trkpt lat="44.0869281" lon="7.9011841"><ele>776.0</ele><time>2026-05-01T09:49:02.36Z</time></trkpt><trkpt lat="44.0869308" lon="7.9013071"><ele>773.3333333333333</ele><time>2026-05-01T09:49:03.359Z</time></trkpt><trkpt lat="44.0869263" lon="7.9014308"><ele>770.6666666666666</ele><time>2026-05-01T09:49:04.359Z</time></trkpt><trkpt lat="44.0869276" lon="7.9015621"><ele>768.0</ele><time>2026-05-01T09:49:05.36Z</time></trkpt><trkpt lat="44.0869244" lon="7.9016927"><ele>763.25</ele><time>2026-05-01T09:49:06.36Z</time></trkpt><trkpt lat="44.0869233" lon="7.9018147"><ele>758.5</ele><time>2026-05-01T09:49:07.36Z</time></trkpt><trkpt lat="44.0869068" lon="7.9021742"><ele>753.75</ele><time>2026-05-01T09:49:10.358Z</time></trkpt><trkpt lat="44.0868576" lon="7.9022792"><ele>749.0</ele><time>2026-05-01T09:49:11.359Z</time></trkpt><trkpt lat="44.0868176" lon="7.9023789"><ele>749.0</ele><time>2026-05-01T09:49:12.359Z</time></trkpt><trkpt lat="44.0867617" lon="7.9024742"><ele>749.0</ele><time>2026-05-01T09:49:13.359Z</time></trkpt><trkpt lat="44.0867184" lon="7.9025731"><ele>749.0</ele><time>2026-05-01T09:49:14.359Z</time></trkpt><trkpt lat="44.0866632" lon="7.902683"><ele>749.0</ele><time>2026-05-01T09:49:15.359Z</time></trkpt><trkpt lat="44.0866013" lon="7.9027847"><ele>749.0</ele><time>2026-05-01T09:49:16.358Z</time></trkpt><trkpt lat="44.0865463" lon="7.9028908"><ele>748.8333333333333</ele><time>2026-05-01T09:49:17.359Z</time></trkpt><trkpt lat="44.0865028" lon="7.9029723"><ele>748.6666666666666</ele><time>2026-05-01T09:49:18.359Z</time></trkpt><trkpt lat="44.0864489" lon="7.903061"><ele>748.5</ele><time>2026-05-01T09:49:19.359Z</time></trkpt><trkpt lat="44.0863901" lon="7.9031307"><ele>748.3333333333334</ele><time>2026-05-01T09:49:20.359Z</time></trkpt><trkpt lat="44.086319" lon="7.9031729"><ele>748.1666666666667</ele><time>2026-05-01T09:49:21.359Z</time></trkpt><trkpt lat="44.0862383" lon="7.9031951"><ele>748.0</ele><time>2026-05-01T09:49:22.359Z</time></trkpt><trkpt lat="44.0861593" lon="7.9032294"><ele>748.0</ele><time>2026-05-01T09:49:23.359Z</time></trkpt><trkpt lat="44.0860856" lon="7.903275"><ele>748.0</ele><time>2026-05-01T09:49:24.358Z</time></trkpt><trkpt lat="44.0860153" lon="7.9033489"><ele>748.0</ele><time>2026-05-01T09:49:25.359Z</time></trkpt><trkpt lat="44.0859407" lon="7.9034299"><ele>748.0</ele><time>2026-05-01T09:49:26.358Z</time></trkpt><trkpt lat="44.0858702" lon="7.9035189"><ele>748.0</ele><time>2026-05-01T09:49:27.359Z</time></trkpt><trkpt lat="44.0858055" lon="7.9036029"><ele>748.0</ele><time>2026-05-01T09:49:28.358Z</time></trkpt><trkpt lat="44.0857439" lon="7.9036939"><ele>747.0</ele><time>2026-05-01T09:49:29.359Z</time></trkpt><trkpt lat="44.0856839" lon="7.9037888"><ele>746.0</ele><time>2026-05-01T09:49:30.359Z</time></trkpt><trkpt lat="44.0856298" lon="7.9038921"><ele>745.0</ele><time>2026-05-01T09:49:31.358Z</time></trkpt><trkpt lat="44.085586" lon="7.9039909"><ele>744.0</ele><time>2026-05-01T09:49:32.358Z</time></trkpt><trkpt lat="44.0855658" lon="7.9041066"><ele>743.0</ele><time>2026-05-01T09:49:33.359Z</time></trkpt><trkpt lat="44.085535" lon="7.9042059"><ele>742.0</ele><time>2026-05-01T09:49:34.359Z</time></trkpt><trkpt lat="44.0855008" lon="7.9042971"><ele>738.6</ele><time>2026-05-01T09:49:35.359Z</time></trkpt><trkpt lat="44.0854631" lon="7.9044142"><ele>735.2</ele><time>2026-05-01T09:49:36.357Z</time></trkpt><trkpt lat="44.0854411" lon="7.9045449"><ele>731.8</ele><time>2026-05-01T09:49:37.359Z</time></trkpt><trkpt lat="44.0854225" lon="7.904695"><ele>728.4</ele><time>2026-05-01T09:49:38.359Z</time></trkpt><trkpt lat="44.0854091" lon="7.9048486"><ele>725.0</ele><time>2026-05-01T09:49:39.359Z</time></trkpt><trkpt lat="44.0853882" lon="7.9049971"><ele>721.8</ele><time>2026-05-01T09:49:40.358Z</time></trkpt><trkpt lat="44.0853652" lon="7.9051475"><ele>718.6</ele><time>2026-05-01T09:49:41.359Z</time></trkpt><trkpt lat="44.0853287" lon="7.9052795"><ele>715.4000000000001</ele><time>2026-05-01T09:49:42.359Z</time></trkpt><trkpt lat="44.085298" lon="7.9054132"><ele>712.2</ele><time>2026-05-01T09:49:43.358Z</time></trkpt><trkpt lat="44.0852733" lon="7.9055411"><ele>709.0</ele><time>2026-05-01T09:49:44.358Z</time></trkpt><trkpt lat="44.0852572" lon="7.9056508"><ele>709.0</ele><time>2026-05-01T09:49:45.359Z</time></trkpt><trkpt lat="44.0852367" lon="7.9057537"><ele>709.0</ele><time>2026-05-01T09:49:46.359Z</time></trkpt><trkpt lat="44.0851932" lon="7.9058481"><ele>709.0</ele><time>2026-05-01T09:49:47.358Z</time></trkpt><trkpt lat="44.0851438" lon="7.9059097"><ele>709.0</ele><time>2026-05-01T09:49:48.358Z</time></trkpt><trkpt lat="44.0850844" lon="7.9059551"><ele>709.0</ele><time>2026-05-01T09:49:49.358Z</time></trkpt><trkpt lat="44.0850002" lon="7.9058943"><ele>709.0</ele><time>2026-05-01T09:49:50.357Z</time></trkpt><trkpt lat="44.0848764" lon="7.9057623"><ele>708.1666666666667</ele><time>2026-05-01T09:49:52.359Z</time></trkpt><trkpt lat="44.0848136" lon="7.9056634"><ele>707.3333333333334</ele><time>2026-05-01T09:49:53.358Z</time></trkpt><trkpt lat="44.0847488" lon="7.9055686"><ele>706.5</ele><time>2026-05-01T09:49:54.359Z</time></trkpt><trkpt lat="44.0846847" lon="7.9055016"><ele>705.6666666666666</ele><time>2026-05-01T09:49:55.358Z</time></trkpt><trkpt lat="44.0846254" lon="7.9054261"><ele>704.8333333333333</ele><time>2026-05-01T09:49:56.358Z</time></trkpt><trkpt lat="44.0845618" lon="7.9053943"><ele>704.0</ele><time>2026-05-01T09:49:57.359Z</time></trkpt><trkpt lat="44.0844848" lon="7.9055406"><ele>704.0</ele><time>2026-05-01T09:49:59.359Z</time></trkpt><trkpt lat="44.0844401" lon="7.9057442"><ele>704.0</ele><time>2026-05-01T09:50:01.359Z</time></trkpt><trkpt lat="44.0844265" lon="7.9058399"><ele>704.0</ele><time>2026-05-01T09:50:02.357Z</time></trkpt><trkpt lat="44.084329" lon="7.9060055"><ele>704.0</ele><time>2026-05-01T09:50:04.358Z</time></trkpt><trkpt lat="44.084271" lon="7.9060731"><ele>702.0</ele><time>2026-05-01T09:50:05.359Z</time></trkpt><trkpt lat="44.0842174" lon="7.9061661"><ele>700.0</ele><time>2026-05-01T09:50:06.359Z</time></trkpt><trkpt lat="44.0841658" lon="7.9062656"><ele>698.0</ele><time>2026-05-01T09:50:07.357Z</time></trkpt><trkpt lat="44.0841428" lon="7.906366"><ele>696.0</ele><time>2026-05-01T09:50:08.359Z</time></trkpt><trkpt lat="44.0841095" lon="7.9064836"><ele>694.0</ele><time>2026-05-01T09:50:09.359Z</time></trkpt><trkpt lat="44.0841073" lon="7.9066082"><ele>692.0</ele><time>2026-05-01T09:50:10.359Z</time></trkpt><trkpt lat="44.0840834" lon="7.9067407"><ele>688.6666666666666</ele><time>2026-05-01T09:50:11.358Z</time></trkpt><trkpt lat="44.0840703" lon="7.9068643"><ele>685.3333333333333</ele><time>2026-05-01T09:50:12.358Z</time></trkpt><trkpt lat="44.0840506" lon="7.9069813"><ele>682.0</ele><time>2026-05-01T09:50:13.359Z</time></trkpt><trkpt lat="44.0840138" lon="7.9070896"><ele>678.6666666666666</ele><time>2026-05-01T09:50:14.359Z</time></trkpt><trkpt lat="44.0839722" lon="7.9071892"><ele>675.3333333333334</ele><time>2026-05-01T09:50:15.359Z</time></trkpt><trkpt lat="44.0839" lon="7.9072616"><ele>672.0</ele><time>2026-05-01T09:50:16.359Z</time></trkpt><trkpt lat="44.0838322" lon="7.9073183"><ele>672.0</ele><time>2026-05-01T09:50:17.358Z</time></trkpt><trkpt lat="44.0837689" lon="7.9073656"><ele>672.0</ele><time>2026-05-01T09:50:18.359Z</time></trkpt><trkpt lat="44.0836666" lon="7.9074349"><ele>672.0</ele><time>2026-05-01T09:50:20.358Z</time></trkpt><trkpt lat="44.0836452" lon="7.9075686"><ele>672.0</ele><time>2026-05-01T09:50:22.359Z</time></trkpt><trkpt lat="44.0837775" lon="7.9075771"><ele>672.0</ele><time>2026-05-01T09:50:24.358Z</time></trkpt><trkpt lat="44.0838578" lon="7.9075727"><ele>672.0</ele><time>2026-05-01T09:50:25.358Z</time></trkpt><trkpt lat="44.0839368" lon="7.9075424"><ele>672.0</ele><time>2026-05-01T09:50:26.359Z</time></trkpt><trkpt lat="44.0840355" lon="7.9074989"><ele>672.0</ele><time>2026-05-01T09:50:27.359Z</time></trkpt><trkpt lat="44.0841192" lon="7.9074251"><ele>672.0</ele><time>2026-05-01T09:50:28.359Z</time></trkpt><trkpt lat="44.08419" lon="7.9073628"><ele>672.0</ele><time>2026-05-01T09:50:29.359Z</time></trkpt><trkpt lat="44.0842666" lon="7.9073012"><ele>673.6</ele><time>2026-05-01T09:50:30.359Z</time></trkpt><trkpt lat="44.0843261" lon="7.9072442"><ele>675.2</ele><time>2026-05-01T09:50:31.359Z</time></trkpt><trkpt lat="44.0844305" lon="7.9072588"><ele>676.8</ele><time>2026-05-01T09:50:33.359Z</time></trkpt><trkpt lat="44.0844893" lon="7.9073688"><ele>678.4</ele><time>2026-05-01T09:50:35.359Z</time></trkpt><trkpt lat="44.0844501" lon="7.9074844"><ele>680.0</ele><time>2026-05-01T09:50:37.359Z</time></trkpt><trkpt lat="44.0843305" lon="7.9075664"><ele>677.6</ele><time>2026-05-01T09:50:39.359Z</time></trkpt><trkpt lat="44.0842551" lon="7.9076393"><ele>675.2</ele><time>2026-05-01T09:50:40.359Z</time></trkpt><trkpt lat="44.0841884" lon="7.9077331"><ele>672.8</ele><time>2026-05-01T09:50:41.359Z</time></trkpt><trkpt lat="44.0841226" lon="7.9078226"><ele>670.4</ele><time>2026-05-01T09:50:42.358Z</time></trkpt><trkpt lat="44.0840508" lon="7.9079044"><ele>668.0</ele><time>2026-05-01T09:50:43.358Z</time></trkpt><trkpt lat="44.0839788" lon="7.9079729"><ele>666.3333333333333</ele><time>2026-05-01T09:50:44.358Z</time></trkpt><trkpt lat="44.0839038" lon="7.9080483"><ele>664.6666666666666</ele><time>2026-05-01T09:50:45.359Z</time></trkpt><trkpt lat="44.0838346" lon="7.9081443"><ele>663.0</ele><time>2026-05-01T09:50:46.358Z</time></trkpt><trkpt lat="44.0837769" lon="7.9082536"><ele>661.3333333333334</ele><time>2026-05-01T09:50:47.358Z</time></trkpt><trkpt lat="44.0837488" lon="7.9083554"><ele>659.6666666666667</ele><time>2026-05-01T09:50:48.359Z</time></trkpt><trkpt lat="44.0837057" lon="7.9084508"><ele>658.0</ele><time>2026-05-01T09:50:49.359Z</time></trkpt><trkpt lat="44.0836485" lon="7.9085222"><ele>658.0</ele><time>2026-05-01T09:50:50.359Z</time></trkpt><trkpt lat="44.0835949" lon="7.9085777"><ele>658.0</ele><time>2026-05-01T09:50:51.359Z</time></trkpt><trkpt lat="44.0834648" lon="7.9085492"><ele>658.0</ele><time>2026-05-01T09:50:53.358Z</time></trkpt><trkpt lat="44.0833992" lon="7.9085159"><ele>658.0</ele><time>2026-05-01T09:50:54.359Z</time></trkpt><trkpt lat="44.083363" lon="7.9084227"><ele>658.0</ele><time>2026-05-01T09:50:55.359Z</time></trkpt><trkpt lat="44.0833146" lon="7.9083384"><ele>658.0</ele><time>2026-05-01T09:50:56.357Z</time></trkpt><trkpt lat="44.0832449" lon="7.9082708"><ele>653.5</ele><time>2026-05-01T09:50:57.358Z</time></trkpt><trkpt lat="44.0831682" lon="7.9082149"><ele>649.0</ele><time>2026-05-01T09:50:58.359Z</time></trkpt><trkpt lat="44.083083" lon="7.9081863"><ele>644.5</ele><time>2026-05-01T09:50:59.358Z</time></trkpt><trkpt lat="44.0830027" lon="7.9081747"><ele>640.0</ele><time>2026-05-01T09:51:00.359Z</time></trkpt><trkpt lat="44.0829266" lon="7.9081505"><ele>635.5</ele><time>2026-05-01T09:51:01.359Z</time></trkpt><trkpt lat="44.08287" lon="7.908112"><ele>631.0</ele><time>2026-05-01T09:51:02.359Z</time></trkpt><trkpt lat="44.0828085" lon="7.9080587"><ele>631.0</ele><time>2026-05-01T09:51:03.359Z</time></trkpt><trkpt lat="44.0827548" lon="7.9079682"><ele>631.0</ele><time>2026-05-01T09:51:04.358Z</time></trkpt><trkpt lat="44.0827164" lon="7.9078779"><ele>631.0</ele><time>2026-05-01T09:51:05.359Z</time></trkpt><trkpt lat="44.0826956" lon="7.9077614"><ele>631.0</ele><time>2026-05-01T09:51:06.359Z</time></trkpt><trkpt lat="44.0826868" lon="7.9076482"><ele>631.0</ele><time>2026-05-01T09:51:07.359Z</time></trkpt><trkpt lat="44.0826826" lon="7.9075414"><ele>631.0</ele><time>2026-05-01T09:51:08.358Z</time></trkpt><trkpt lat="44.0826706" lon="7.9074517"><ele>630.3333333333334</ele><time>2026-05-01T09:51:09.359Z</time></trkpt><trkpt lat="44.0826419" lon="7.9073704"><ele>629.6666666666667</ele><time>2026-05-01T09:51:10.359Z</time></trkpt><trkpt lat="44.0825804" lon="7.9073227"><ele>629.0</ele><time>2026-05-01T09:51:11.359Z</time></trkpt><trkpt lat="44.0824983" lon="7.9073235"><ele>628.3333333333334</ele><time>2026-05-01T09:51:12.359Z</time></trkpt><trkpt lat="44.082412" lon="7.9073135"><ele>627.6666666666666</ele><time>2026-05-01T09:51:13.359Z</time></trkpt><trkpt lat="44.0823156" lon="7.907304"><ele>627.0</ele><time>2026-05-01T09:51:14.359Z</time></trkpt><trkpt lat="44.0822076" lon="7.9072886"><ele>627.0</ele><time>2026-05-01T09:51:15.358Z</time></trkpt><trkpt lat="44.0820992" lon="7.9072764"><ele>627.0</ele><time>2026-05-01T09:51:16.359Z</time></trkpt><trkpt lat="44.0819946" lon="7.9072576"><ele>627.0</ele><time>2026-05-01T09:51:17.359Z</time></trkpt><trkpt lat="44.0818947" lon="7.9072382"><ele>627.0</ele><time>2026-05-01T09:51:18.359Z</time></trkpt><trkpt lat="44.0818233" lon="7.9071582"><ele>627.0</ele><time>2026-05-01T09:51:19.358Z</time></trkpt><trkpt lat="44.0817354" lon="7.9071038"><ele>627.0</ele><time>2026-05-01T09:51:20.359Z</time></trkpt><trkpt lat="44.0816589" lon="7.9070733"><ele>627.0</ele><time>2026-05-01T09:51:21.358Z</time></trkpt><trkpt lat="44.0815814" lon="7.907038"><ele>627.0</ele><time>2026-05-01T09:51:22.358Z</time></trkpt><trkpt lat="44.0814831" lon="7.9070647"><ele>627.0</ele><time>2026-05-01T09:51:23.359Z</time></trkpt><trkpt lat="44.0813699" lon="7.907096"><ele>627.0</ele><time>2026-05-01T09:51:24.359Z</time></trkpt><trkpt lat="44.0812676" lon="7.9071331"><ele>625.0</ele><time>2026-05-01T09:51:25.358Z</time></trkpt><trkpt lat="44.0811496" lon="7.9072076"><ele>623.0</ele><time>2026-05-01T09:51:26.359Z</time></trkpt><trkpt lat="44.0810346" lon="7.9072556"><ele>621.0</ele><time>2026-05-01T09:51:27.359Z</time></trkpt><trkpt lat="44.0809281" lon="7.9073011"><ele>619.0</ele><time>2026-05-01T09:51:28.359Z</time></trkpt><trkpt lat="44.0808407" lon="7.9073655"><ele>618.5</ele><time>2026-05-01T09:51:29.358Z</time></trkpt><trkpt lat="44.0807518" lon="7.9074069"><ele>618.0</ele><time>2026-05-01T09:51:30.359Z</time></trkpt><trkpt lat="44.0806625" lon="7.9074288"><ele>617.5</ele><time>2026-05-01T09:51:31.359Z</time></trkpt><trkpt lat="44.0805805" lon="7.9074494"><ele>617.0</ele><time>2026-05-01T09:51:32.359Z</time></trkpt><trkpt lat="44.0805025" lon="7.9074502"><ele>616.5</ele><time>2026-05-01T09:51:33.358Z</time></trkpt><trkpt lat="44.0804339" lon="7.9074632"><ele>616.0</ele><time>2026-05-01T09:51:34.358Z</time></trkpt><trkpt lat="44.0803698" lon="7.9075567"><ele>612.2</ele><time>2026-05-01T09:51:36.359Z</time></trkpt><trkpt lat="44.0804973" lon="7.9076169"><ele>608.4000000000001</ele><time>2026-05-01T09:51:39.359Z</time></trkpt><trkpt lat="44.0805833" lon="7.9075962"><ele>604.6</ele><time>2026-05-01T09:51:40.358Z</time></trkpt><trkpt lat="44.0806693" lon="7.9075774"><ele>600.8000000000001</ele><time>2026-05-01T09:51:41.359Z</time></trkpt><trkpt lat="44.0807625" lon="7.9075796"><ele>597.0</ele><time>2026-05-01T09:51:42.359Z</time></trkpt><trkpt lat="44.0808591" lon="7.9075912"><ele>597.0</ele><time>2026-05-01T09:51:43.359Z</time></trkpt><trkpt lat="44.080935" lon="7.9076058"><ele>597.0</ele><time>2026-05-01T09:51:44.359Z</time></trkpt><trkpt lat="44.0810263" lon="7.9076011"><ele>597.0</ele><time>2026-05-01T09:51:45.358Z</time></trkpt><trkpt lat="44.0811273" lon="7.9076578"><ele>597.0</ele><time>2026-05-01T09:51:46.359Z</time></trkpt><trkpt lat="44.0812264" lon="7.9077095"><ele>597.0</ele><time>2026-05-01T09:51:47.359Z</time></trkpt><trkpt lat="44.0813102" lon="7.9077955"><ele>597.0</ele><time>2026-05-01T09:51:48.359Z</time></trkpt><trkpt lat="44.0813831" lon="7.9078665"><ele>597.0</ele><time>2026-05-01T09:51:49.359Z</time></trkpt><trkpt lat="44.0814582" lon="7.9079328"><ele>597.0</ele><time>2026-05-01T09:51:50.358Z</time></trkpt><trkpt lat="44.0815399" lon="7.907986"><ele>597.0</ele><time>2026-05-01T09:51:51.359Z</time></trkpt><trkpt lat="44.0816055" lon="7.9080301"><ele>597.0</ele><time>2026-05-01T09:51:52.358Z</time></trkpt><trkpt lat="44.0816987" lon="7.9081142"><ele>597.0</ele><time>2026-05-01T09:51:54.359Z</time></trkpt><trkpt lat="44.0816755" lon="7.9081959"><ele>597.0</ele><time>2026-05-01T09:51:57.359Z</time></trkpt><trkpt lat="44.0816181" lon="7.9081496"><ele>597.0</ele><time>2026-05-01T09:52:00.358Z</time></trkpt><trkpt lat="44.0815084" lon="7.9080593"><ele>597.0</ele><time>2026-05-01T09:52:02.359Z</time></trkpt><trkpt lat="44.0814189" lon="7.9080279"><ele>597.0</ele><time>2026-05-01T09:52:03.359Z</time></trkpt><trkpt lat="44.0813244" lon="7.9080048"><ele>597.0</ele><time>2026-05-01T09:52:04.359Z</time></trkpt><trkpt lat="44.0812146" lon="7.9079843"><ele>597.0</ele><time>2026-05-01T09:52:05.359Z</time></trkpt><trkpt lat="44.0811052" lon="7.9079567"><ele>597.0</ele><time>2026-05-01T09:52:06.359Z</time></trkpt><trkpt lat="44.0809964" lon="7.9079425"><ele>597.0</ele><time>2026-05-01T09:52:07.359Z</time></trkpt><trkpt lat="44.0808776" lon="7.9079742"><ele>597.0</ele><time>2026-05-01T09:52:08.358Z</time></trkpt><trkpt lat="44.0807625" lon="7.9080302"><ele>595.5</ele><time>2026-05-01T09:52:09.359Z</time></trkpt><trkpt lat="44.0806473" lon="7.9080934"><ele>594.0</ele><time>2026-05-01T09:52:10.358Z</time></trkpt><trkpt lat="44.0805311" lon="7.9081567"><ele>592.5</ele><time>2026-05-01T09:52:11.359Z</time></trkpt><trkpt lat="44.0804093" lon="7.9082128"><ele>591.0</ele><time>2026-05-01T09:52:12.359Z</time></trkpt><trkpt lat="44.080285" lon="7.9082305"><ele>591.0</ele><time>2026-05-01T09:52:13.359Z</time></trkpt><trkpt lat="44.0801606" lon="7.9082296"><ele>591.0</ele><time>2026-05-01T09:52:14.359Z</time></trkpt><trkpt lat="44.080039" lon="7.9082182"><ele>591.0</ele><time>2026-05-01T09:52:15.359Z</time></trkpt><trkpt lat="44.0799327" lon="7.908206"><ele>591.0</ele><time>2026-05-01T09:52:16.359Z</time></trkpt><trkpt lat="44.0798544" lon="7.9082058"><ele>591.0</ele><time>2026-05-01T09:52:17.359Z</time></trkpt><trkpt lat="44.0797836" lon="7.9083241"><ele>586.6</ele><time>2026-05-01T09:52:19.358Z</time></trkpt><trkpt lat="44.0797969" lon="7.9084456"><ele>582.2</ele><time>2026-05-01T09:52:20.359Z</time></trkpt><trkpt lat="44.0798873" lon="7.9085059"><ele>577.8</ele><time>2026-05-01T09:52:21.359Z</time></trkpt><trkpt lat="44.0800111" lon="7.9085298"><ele>573.4</ele><time>2026-05-01T09:52:22.359Z</time></trkpt><trkpt lat="44.0801432" lon="7.9085474"><ele>569.0</ele><time>2026-05-01T09:52:23.357Z</time></trkpt><trkpt lat="44.0802751" lon="7.9085922"><ele>569.0</ele><time>2026-05-01T09:52:24.358Z</time></trkpt><trkpt lat="44.0804048" lon="7.9086372"><ele>569.0</ele><time>2026-05-01T09:52:25.359Z</time></trkpt><trkpt lat="44.0805313" lon="7.9086721"><ele>569.0</ele><time>2026-05-01T09:52:26.359Z</time></trkpt><trkpt lat="44.0806566" lon="7.9086926"><ele>569.0</ele><time>2026-05-01T09:52:27.359Z</time></trkpt><trkpt lat="44.0807754" lon="7.9087305"><ele>570.6</ele><time>2026-05-01T09:52:28.359Z</time></trkpt><trkpt lat="44.0808755" lon="7.9087791"><ele>572.2</ele><time>2026-05-01T09:52:29.359Z</time></trkpt><trkpt lat="44.0809679" lon="7.908831"><ele>573.8000000000001</ele><time>2026-05-01T09:52:30.359Z</time></trkpt><trkpt lat="44.0810097" lon="7.9089695"><ele>575.4</ele><time>2026-05-01T09:52:32.359Z</time></trkpt><trkpt lat="44.0809641" lon="7.9090454"><ele>577.0</ele><time>2026-05-01T09:52:33.358Z</time></trkpt><trkpt lat="44.080893" lon="7.9090836"><ele>577.0</ele><time>2026-05-01T09:52:34.359Z</time></trkpt><trkpt lat="44.0808013" lon="7.9090892"><ele>577.0</ele><time>2026-05-01T09:52:35.359Z</time></trkpt><trkpt lat="44.0806961" lon="7.9090906"><ele>577.0</ele><time>2026-05-01T09:52:36.359Z</time></trkpt><trkpt lat="44.0805775" lon="7.9091268"><ele>577.0</ele><time>2026-05-01T09:52:37.358Z</time></trkpt><trkpt lat="44.0804682" lon="7.9092125"><ele>577.0</ele><time>2026-05-01T09:52:38.359Z</time></trkpt><trkpt lat="44.0803579" lon="7.9093318"><ele>572.0</ele><time>2026-05-01T09:52:39.358Z</time></trkpt><trkpt lat="44.0802479" lon="7.909448"><ele>567.0</ele><time>2026-05-01T09:52:40.359Z</time></trkpt><trkpt lat="44.0801407" lon="7.9095622"><ele>562.0</ele><time>2026-05-01T09:52:41.358Z</time></trkpt><trkpt lat="44.0800405" lon="7.9096644"><ele>557.0</ele><time>2026-05-01T09:52:42.359Z</time></trkpt><trkpt lat="44.0799459" lon="7.9097451"><ele>555.8000000000001</ele><time>2026-05-01T09:52:43.359Z</time></trkpt><trkpt lat="44.0798538" lon="7.9097858"><ele>554.6</ele><time>2026-05-01T09:52:44.359Z</time></trkpt><trkpt lat="44.0797492" lon="7.9097753"><ele>553.4000000000001</ele><time>2026-05-01T09:52:45.359Z</time></trkpt><trkpt lat="44.0796374" lon="7.90972"><ele>552.2</ele><time>2026-05-01T09:52:46.359Z</time></trkpt><trkpt lat="44.0795305" lon="7.9096472"><ele>551.0</ele><time>2026-05-01T09:52:47.359Z</time></trkpt><trkpt lat="44.0794431" lon="7.9095758"><ele>551.0</ele><time>2026-05-01T09:52:48.359Z</time></trkpt><trkpt lat="44.0793864" lon="7.9094889"><ele>551.0</ele><time>2026-05-01T09:52:49.359Z</time></trkpt><trkpt lat="44.0793742" lon="7.9093796"><ele>551.0</ele><time>2026-05-01T09:52:50.359Z</time></trkpt><trkpt lat="44.0793956" lon="7.9092621"><ele>551.0</ele><time>2026-05-01T09:52:51.359Z</time></trkpt><trkpt lat="44.0794119" lon="7.9091544"><ele>551.0</ele><time>2026-05-01T09:52:52.358Z</time></trkpt><trkpt lat="44.0793907" lon="7.9090655"><ele>551.0</ele><time>2026-05-01T09:52:53.358Z</time></trkpt><trkpt lat="44.0793384" lon="7.9089986"><ele>553.6</ele><time>2026-05-01T09:52:54.359Z</time></trkpt><trkpt lat="44.079272" lon="7.9089592"><ele>556.2</ele><time>2026-05-01T09:52:55.358Z</time></trkpt><trkpt lat="44.0791928" lon="7.908981"><ele>558.8</ele><time>2026-05-01T09:52:56.357Z</time></trkpt><trkpt lat="44.0790989" lon="7.9090952"><ele>561.4</ele><time>2026-05-01T09:52:57.357Z</time></trkpt><trkpt lat="44.079002" lon="7.909254"><ele>564.0</ele><time>2026-05-01T09:52:58.359Z</time></trkpt><trkpt lat="44.0789109" lon="7.9094005"><ele>564.0</ele><time>2026-05-01T09:52:59.359Z</time></trkpt><trkpt lat="44.0788171" lon="7.9095268"><ele>564.0</ele><time>2026-05-01T09:53:00.359Z</time></trkpt><trkpt lat="44.0787386" lon="7.9096416"><ele>564.0</ele><time>2026-05-01T09:53:01.358Z</time></trkpt><trkpt lat="44.0786697" lon="7.9097781"><ele>564.0</ele><time>2026-05-01T09:53:02.358Z</time></trkpt><trkpt lat="44.0786353" lon="7.9099202"><ele>564.0</ele><time>2026-05-01T09:53:03.359Z</time></trkpt><trkpt lat="44.0786225" lon="7.9100673"><ele>564.0</ele><time>2026-05-01T09:53:04.359Z</time></trkpt><trkpt lat="44.0786047" lon="7.9101994"><ele>564.0</ele><time>2026-05-01T09:53:05.359Z</time></trkpt><trkpt lat="44.0785395" lon="7.9102904"><ele>564.0</ele><time>2026-05-01T09:53:06.359Z</time></trkpt><trkpt lat="44.078446" lon="7.9103508"><ele>564.0</ele><time>2026-05-01T09:53:07.359Z</time></trkpt><trkpt lat="44.0783306" lon="7.9103998"><ele>556.25</ele><time>2026-05-01T09:53:08.359Z</time></trkpt><trkpt lat="44.0782025" lon="7.9104526"><ele>548.5</ele><time>2026-05-01T09:53:09.358Z</time></trkpt><trkpt lat="44.0780723" lon="7.9105069"><ele>540.75</ele><time>2026-05-01T09:53:10.359Z</time></trkpt><trkpt lat="44.0779331" lon="7.910544"><ele>533.0</ele><time>2026-05-01T09:53:11.359Z</time></trkpt><trkpt lat="44.0777956" lon="7.910559"><ele>533.0</ele><time>2026-05-01T09:53:12.358Z</time></trkpt><trkpt lat="44.0776553" lon="7.9105547"><ele>533.0</ele><time>2026-05-01T09:53:13.359Z</time></trkpt><trkpt lat="44.0775135" lon="7.9105461"><ele>533.0</ele><time>2026-05-01T09:53:14.359Z</time></trkpt><trkpt lat="44.0773682" lon="7.9105406"><ele>533.0</ele><time>2026-05-01T09:53:15.358Z</time></trkpt><trkpt lat="44.0772244" lon="7.9105399"><ele>533.75</ele><time>2026-05-01T09:53:16.359Z</time></trkpt><trkpt lat="44.0770893" lon="7.9105373"><ele>534.5</ele><time>2026-05-01T09:53:17.359Z</time></trkpt><trkpt lat="44.0769669" lon="7.9105306"><ele>535.25</ele><time>2026-05-01T09:53:18.358Z</time></trkpt><trkpt lat="44.0768536" lon="7.91053"><ele>536.0</ele><time>2026-05-01T09:53:19.359Z</time></trkpt><trkpt lat="44.076758" lon="7.9105458"><ele>536.0</ele><time>2026-05-01T09:53:20.358Z</time></trkpt><trkpt lat="44.0766713" lon="7.9106036"><ele>536.0</ele><time>2026-05-01T09:53:21.358Z</time></trkpt><trkpt lat="44.076595" lon="7.910719"><ele>536.0</ele><time>2026-05-01T09:53:22.359Z</time></trkpt><trkpt lat="44.076518" lon="7.9108414"><ele>536.0</ele><time>2026-05-01T09:53:23.359Z</time></trkpt><trkpt lat="44.0764336" lon="7.9109447"><ele>536.0</ele><time>2026-05-01T09:53:24.359Z</time></trkpt><trkpt lat="44.0763405" lon="7.9110169"><ele>535.1666666666666</ele><time>2026-05-01T09:53:25.357Z</time></trkpt><trkpt lat="44.0762433" lon="7.9110693"><ele>534.3333333333333</ele><time>2026-05-01T09:53:26.359Z</time></trkpt><trkpt lat="44.0761518" lon="7.9111197"><ele>533.5</ele><time>2026-05-01T09:53:27.359Z</time></trkpt><trkpt lat="44.0761057" lon="7.9112158"><ele>532.6666666666666</ele><time>2026-05-01T09:53:28.359Z</time></trkpt><trkpt lat="44.0760714" lon="7.9113145"><ele>531.8333333333334</ele><time>2026-05-01T09:53:29.359Z</time></trkpt><trkpt lat="44.0760664" lon="7.9114291"><ele>531.0</ele><time>2026-05-01T09:53:30.359Z</time></trkpt><trkpt lat="44.0761991" lon="7.9114603"><ele>531.0</ele><time>2026-05-01T09:53:31.359Z</time></trkpt><trkpt lat="44.0763497" lon="7.9114223"><ele>531.0</ele><time>2026-05-01T09:53:32.358Z</time></trkpt><trkpt lat="44.0764961" lon="7.9113647"><ele>531.0</ele><time>2026-05-01T09:53:33.359Z</time></trkpt><trkpt lat="44.0766316" lon="7.911283"><ele>526.25</ele><time>2026-05-01T09:53:34.358Z</time></trkpt><trkpt lat="44.0767481" lon="7.9112006"><ele>521.5</ele><time>2026-05-01T09:53:35.359Z</time></trkpt><trkpt lat="44.0768475" lon="7.9111434"><ele>516.75</ele><time>2026-05-01T09:53:36.359Z</time></trkpt><trkpt lat="44.0769457" lon="7.9111366"><ele>512.0</ele><time>2026-05-01T09:53:37.359Z</time></trkpt><trkpt lat="44.0770588" lon="7.9111885"><ele>512.0</ele><time>2026-05-01T09:53:38.359Z</time></trkpt><trkpt lat="44.0771929" lon="7.9112575"><ele>512.0</ele><time>2026-05-01T09:53:39.358Z</time></trkpt><trkpt lat="44.0773445" lon="7.9113048"><ele>512.0</ele><time>2026-05-01T09:53:40.359Z</time></trkpt><trkpt lat="44.0775005" lon="7.9113244"><ele>508.66666666666663</ele><time>2026-05-01T09:53:41.359Z</time></trkpt><trkpt lat="44.0776567" lon="7.9113325"><ele>505.33333333333337</ele><time>2026-05-01T09:53:42.359Z</time></trkpt><trkpt lat="44.0778182" lon="7.9113332"><ele>502.0</ele><time>2026-05-01T09:53:43.359Z</time></trkpt><trkpt lat="44.0779775" lon="7.911311"><ele>502.0</ele><time>2026-05-01T09:53:44.358Z</time></trkpt><trkpt lat="44.0781287" lon="7.9112577"><ele>502.0</ele><time>2026-05-01T09:53:45.358Z</time></trkpt><trkpt lat="44.0782735" lon="7.9111965"><ele>502.0</ele><time>2026-05-01T09:53:46.359Z</time></trkpt><trkpt lat="44.07841" lon="7.9111478"><ele>502.0</ele><time>2026-05-01T09:53:47.359Z</time></trkpt><trkpt lat="44.0785433" lon="7.9111274"><ele>501.8</ele><time>2026-05-01T09:53:48.359Z</time></trkpt><trkpt lat="44.0786738" lon="7.911121"><ele>501.6</ele><time>2026-05-01T09:53:49.359Z</time></trkpt><trkpt lat="44.0787752" lon="7.9111752"><ele>501.40000000000003</ele><time>2026-05-01T09:53:50.359Z</time></trkpt><trkpt lat="44.078841" lon="7.9112713"><ele>501.20000000000005</ele><time>2026-05-01T09:53:51.358Z</time></trkpt><trkpt lat="44.078872" lon="7.911384"><ele>501.0</ele><time>2026-05-01T09:53:52.358Z</time></trkpt><trkpt lat="44.078854" lon="7.9115044"><ele>501.0</ele><time>2026-05-01T09:53:53.358Z</time></trkpt><trkpt lat="44.0788076" lon="7.9116313"><ele>501.0</ele><time>2026-05-01T09:53:54.359Z</time></trkpt><trkpt lat="44.0787806" lon="7.9117813"><ele>501.0</ele><time>2026-05-01T09:53:55.359Z</time></trkpt><trkpt lat="44.078792" lon="7.9119601"><ele>501.0</ele><time>2026-05-01T09:53:56.359Z</time></trkpt><trkpt lat="44.0788295" lon="7.9121515"><ele>496.5</ele><time>2026-05-01T09:53:57.359Z</time></trkpt><trkpt lat="44.0788767" lon="7.9123518"><ele>492.0</ele><time>2026-05-01T09:53:58.359Z</time></trkpt><trkpt lat="44.0789165" lon="7.9125461"><ele>487.5</ele><time>2026-05-01T09:53:59.359Z</time></trkpt><trkpt lat="44.0789468" lon="7.9127253"><ele>483.0</ele><time>2026-05-01T09:54:00.359Z</time></trkpt><trkpt lat="44.0789717" lon="7.9128856"><ele>481.0</ele><time>2026-05-01T09:54:01.358Z</time></trkpt><trkpt lat="44.0790039" lon="7.9130167"><ele>478.99999999999994</ele><time>2026-05-01T09:54:02.358Z</time></trkpt><trkpt lat="44.079065" lon="7.9131222"><ele>476.99999999999994</ele><time>2026-05-01T09:54:03.358Z</time></trkpt><trkpt lat="44.079155" lon="7.9132009"><ele>475.0</ele><time>2026-05-01T09:54:04.359Z</time></trkpt><trkpt lat="44.0792589" lon="7.9132376"><ele>473.0</ele><time>2026-05-01T09:54:05.357Z</time></trkpt><trkpt lat="44.0793649" lon="7.9132235"><ele>478.0</ele><time>2026-05-01T09:54:06.359Z</time></trkpt><trkpt lat="44.079467" lon="7.9131985"><ele>482.99999999999994</ele><time>2026-05-01T09:54:07.359Z</time></trkpt><trkpt lat="44.0795609" lon="7.9131529"><ele>487.99999999999994</ele><time>2026-05-01T09:54:08.357Z</time></trkpt><trkpt lat="44.0796482" lon="7.9131182"><ele>493.0</ele><time>2026-05-01T09:54:09.358Z</time></trkpt><trkpt lat="44.079653" lon="7.9132455"><ele>498.0</ele><time>2026-05-01T09:54:12.359Z</time></trkpt><trkpt lat="44.0795692" lon="7.9133176"><ele>498.0</ele><time>2026-05-01T09:54:13.359Z</time></trkpt><trkpt lat="44.0794371" lon="7.9133952"><ele>498.0</ele><time>2026-05-01T09:54:14.359Z</time></trkpt><trkpt lat="44.0793206" lon="7.9134666"><ele>498.0</ele><time>2026-05-01T09:54:15.358Z</time></trkpt><trkpt lat="44.0792002" lon="7.9135329"><ele>498.0</ele><time>2026-05-01T09:54:16.359Z</time></trkpt><trkpt lat="44.079086" lon="7.9135703"><ele>494.5</ele><time>2026-05-01T09:54:17.359Z</time></trkpt><trkpt lat="44.0789958" lon="7.9135875"><ele>491.0</ele><time>2026-05-01T09:54:18.359Z</time></trkpt><trkpt lat="44.0789151" lon="7.9136114"><ele>487.5</ele><time>2026-05-01T09:54:19.359Z</time></trkpt><trkpt lat="44.0789401" lon="7.9137343"><ele>484.0</ele><time>2026-05-01T09:54:21.359Z</time></trkpt><trkpt lat="44.0790365" lon="7.9137661"><ele>480.5</ele><time>2026-05-01T09:54:22.358Z</time></trkpt><trkpt lat="44.0791188" lon="7.913781"><ele>477.0</ele><time>2026-05-01T09:54:23.358Z</time></trkpt><trkpt lat="44.0792089" lon="7.9137892"><ele>477.0</ele><time>2026-05-01T09:54:24.359Z</time></trkpt><trkpt lat="44.0793859" lon="7.913741"><ele>477.0</ele><time>2026-05-01T09:54:25.359Z</time></trkpt><trkpt lat="44.0795343" lon="7.913725"><ele>477.0</ele><time>2026-05-01T09:54:26.359Z</time></trkpt><trkpt lat="44.0796748" lon="7.913737"><ele>477.0</ele><time>2026-05-01T09:54:27.359Z</time></trkpt><trkpt lat="44.0798044" lon="7.913751"><ele>477.00000000000006</ele><time>2026-05-01T09:54:28.359Z</time></trkpt><trkpt lat="44.0799266" lon="7.9137512"><ele>477.00000000000006</ele><time>2026-05-01T09:54:29.359Z</time></trkpt><trkpt lat="44.080003" lon="7.9136958"><ele>477.0</ele><time>2026-05-01T09:54:30.359Z</time></trkpt><trkpt lat="44.0800755" lon="7.9136408"><ele>477.0</ele><time>2026-05-01T09:54:31.359Z</time></trkpt><trkpt lat="44.0801464" lon="7.9136016"><ele>477.0</ele><time>2026-05-01T09:54:32.359Z</time></trkpt><trkpt lat="44.0802638" lon="7.9136088"><ele>477.00000000000006</ele><time>2026-05-01T09:54:37.359Z</time></trkpt><trkpt lat="44.0803318" lon="7.9135761"><ele>477.00000000000006</ele><time>2026-05-01T09:54:38.358Z</time></trkpt><trkpt lat="44.0803921" lon="7.913522"><ele>477.0</ele><time>2026-05-01T09:54:39.358Z</time></trkpt><trkpt lat="44.0804714" lon="7.9134461"><ele>477.0</ele><time>2026-05-01T09:54:40.358Z</time></trkpt><trkpt lat="44.0805165" lon="7.9132997"><ele>480.75</ele><time>2026-05-01T09:54:41.359Z</time></trkpt><trkpt lat="44.0805737" lon="7.9131784"><ele>484.5</ele><time>2026-05-01T09:54:42.358Z</time></trkpt><trkpt lat="44.0806487" lon="7.9130707"><ele>488.25</ele><time>2026-05-01T09:54:43.359Z</time></trkpt><trkpt lat="44.0807767" lon="7.9130185"><ele>492.0</ele><time>2026-05-01T09:54:44.358Z</time></trkpt><trkpt lat="44.0809179" lon="7.9129989"><ele>492.0</ele><time>2026-05-01T09:54:45.359Z</time></trkpt><trkpt lat="44.081063" lon="7.913008"><ele>492.0</ele><time>2026-05-01T09:54:46.359Z</time></trkpt><trkpt lat="44.0811993" lon="7.9130298"><ele>492.0</ele><time>2026-05-01T09:54:47.358Z</time></trkpt><trkpt lat="44.0813235" lon="7.9130664"><ele>492.0</ele><time>2026-05-01T09:54:48.358Z</time></trkpt><trkpt lat="44.0814131" lon="7.9131721"><ele>492.0</ele><time>2026-05-01T09:54:49.359Z</time></trkpt><trkpt lat="44.081501" lon="7.9132965"><ele>492.0</ele><time>2026-05-01T09:54:50.358Z</time></trkpt><trkpt lat="44.0815945" lon="7.913413"><ele>492.0</ele><time>2026-05-01T09:54:51.358Z</time></trkpt><trkpt lat="44.0816865" lon="7.9135017"><ele>492.0</ele><time>2026-05-01T09:54:52.359Z</time></trkpt><trkpt lat="44.0817811" lon="7.9135457"><ele>491.40000000000003</ele><time>2026-05-01T09:54:53.359Z</time></trkpt><trkpt lat="44.0818755" lon="7.9135738"><ele>490.80000000000007</ele><time>2026-05-01T09:54:54.358Z</time></trkpt><trkpt lat="44.0819684" lon="7.9136026"><ele>490.2</ele><time>2026-05-01T09:54:55.359Z</time></trkpt><trkpt lat="44.0820723" lon="7.9136207"><ele>489.6</ele><time>2026-05-01T09:54:56.359Z</time></trkpt><trkpt lat="44.0821957" lon="7.9135749"><ele>489.0</ele><time>2026-05-01T09:54:57.359Z</time></trkpt><trkpt lat="44.0823456" lon="7.9134834"><ele>491.66666666666663</ele><time>2026-05-01T09:54:58.359Z</time></trkpt><trkpt lat="44.0824873" lon="7.9133794"><ele>494.3333333333333</ele><time>2026-05-01T09:54:59.359Z</time></trkpt><trkpt lat="44.0826362" lon="7.9132645"><ele>497.0</ele><time>2026-05-01T09:55:00.359Z</time></trkpt><trkpt lat="44.0827757" lon="7.9131125"><ele>497.0</ele><time>2026-05-01T09:55:01.359Z</time></trkpt><trkpt lat="44.0829061" lon="7.9130051"><ele>497.0</ele><time>2026-05-01T09:55:02.358Z</time></trkpt><trkpt lat="44.0830307" lon="7.9129721"><ele>497.0</ele><time>2026-05-01T09:55:03.359Z</time></trkpt><trkpt lat="44.0831536" lon="7.9130012"><ele>497.0</ele><time>2026-05-01T09:55:04.359Z</time></trkpt><trkpt lat="44.0832832" lon="7.9130436"><ele>497.5</ele><time>2026-05-01T09:55:05.359Z</time></trkpt><trkpt lat="44.0834183" lon="7.9130564"><ele>498.0</ele><time>2026-05-01T09:55:06.358Z</time></trkpt><trkpt lat="44.08355" lon="7.9130316"><ele>498.5</ele><time>2026-05-01T09:55:07.358Z</time></trkpt><trkpt lat="44.0836635" lon="7.9130029"><ele>499.0</ele><time>2026-05-01T09:55:08.358Z</time></trkpt><trkpt lat="44.0837587" lon="7.9130175"><ele>499.0</ele><time>2026-05-01T09:55:09.359Z</time></trkpt><trkpt lat="44.0838184" lon="7.9131"><ele>499.0</ele><time>2026-05-01T09:55:10.359Z</time></trkpt><trkpt lat="44.0838345" lon="7.9132199"><ele>499.0</ele><time>2026-05-01T09:55:11.359Z</time></trkpt><trkpt lat="44.0838133" lon="7.9133509"><ele>499.0</ele><time>2026-05-01T09:55:12.359Z</time></trkpt><trkpt lat="44.0837499" lon="7.9134725"><ele>499.0</ele><time>2026-05-01T09:55:13.359Z</time></trkpt><trkpt lat="44.0836546" lon="7.9135772"><ele>499.25</ele><time>2026-05-01T09:55:14.359Z</time></trkpt><trkpt lat="44.0835534" lon="7.9136844"><ele>499.5</ele><time>2026-05-01T09:55:15.359Z</time></trkpt><trkpt lat="44.083458" lon="7.9137982"><ele>499.75</ele><time>2026-05-01T09:55:16.358Z</time></trkpt><trkpt lat="44.0833541" lon="7.9138755"><ele>500.0</ele><time>2026-05-01T09:55:17.359Z</time></trkpt><trkpt lat="44.0832317" lon="7.9138875"><ele>500.0</ele><time>2026-05-01T09:55:18.358Z</time></trkpt><trkpt lat="44.0831175" lon="7.9138844"><ele>500.0</ele><time>2026-05-01T09:55:19.358Z</time></trkpt><trkpt lat="44.0830135" lon="7.9139414"><ele>500.0</ele><time>2026-05-01T09:55:20.359Z</time></trkpt><trkpt lat="44.0829123" lon="7.9140636"><ele>500.0</ele><time>2026-05-01T09:55:21.358Z</time></trkpt><trkpt lat="44.0828001" lon="7.9142032"><ele>505.66666666666663</ele><time>2026-05-01T09:55:22.359Z</time></trkpt><trkpt lat="44.0826647" lon="7.9143088"><ele>511.33333333333337</ele><time>2026-05-01T09:55:23.358Z</time></trkpt><trkpt lat="44.0825127" lon="7.9144089"><ele>517.0</ele><time>2026-05-01T09:55:24.359Z</time></trkpt><trkpt lat="44.0823566" lon="7.9145255"><ele>517.0</ele><time>2026-05-01T09:55:25.359Z</time></trkpt><trkpt lat="44.0822015" lon="7.9146382"><ele>517.0</ele><time>2026-05-01T09:55:26.358Z</time></trkpt><trkpt lat="44.0820466" lon="7.914724"><ele>517.0</ele><time>2026-05-01T09:55:27.359Z</time></trkpt><trkpt lat="44.081896" lon="7.9147914"><ele>517.0</ele><time>2026-05-01T09:55:28.358Z</time></trkpt><trkpt lat="44.0817602" lon="7.9148247"><ele>517.0</ele><time>2026-05-01T09:55:29.358Z</time></trkpt><trkpt lat="44.0816251" lon="7.9148214"><ele>517.0</ele><time>2026-05-01T09:55:30.359Z</time></trkpt><trkpt lat="44.0814904" lon="7.9148341"><ele>517.0</ele><time>2026-05-01T09:55:31.359Z</time></trkpt><trkpt lat="44.0813585" lon="7.9148875"><ele>514.2</ele><time>2026-05-01T09:55:32.359Z</time></trkpt><trkpt lat="44.0812444" lon="7.9149435"><ele>511.40000000000003</ele><time>2026-05-01T09:55:33.359Z</time></trkpt><trkpt lat="44.0811237" lon="7.9150029"><ele>508.59999999999997</ele><time>2026-05-01T09:55:34.359Z</time></trkpt><trkpt lat="44.0810386" lon="7.915091"><ele>505.79999999999995</ele><time>2026-05-01T09:55:35.359Z</time></trkpt><trkpt lat="44.08098" lon="7.9151641"><ele>503.0</ele><time>2026-05-01T09:55:36.359Z</time></trkpt><trkpt lat="44.0811067" lon="7.9154074"><ele>503.0</ele><time>2026-05-01T09:55:37.359Z</time></trkpt><trkpt lat="44.0811216" lon="7.9155655"><ele>503.0</ele><time>2026-05-01T09:55:38.359Z</time></trkpt><trkpt lat="44.0811693" lon="7.915731"><ele>503.0</ele><time>2026-05-01T09:55:39.359Z</time></trkpt><trkpt lat="44.0812327" lon="7.9158898"><ele>503.0</ele><time>2026-05-01T09:55:40.359Z</time></trkpt><trkpt lat="44.0812795" lon="7.9160768"><ele>508.5</ele><time>2026-05-01T09:55:41.359Z</time></trkpt><trkpt lat="44.0812915" lon="7.9162469"><ele>514.0</ele><time>2026-05-01T09:55:42.359Z</time></trkpt><trkpt lat="44.0812626" lon="7.9164024"><ele>519.5</ele><time>2026-05-01T09:55:43.359Z</time></trkpt><trkpt lat="44.0812009" lon="7.9165417"><ele>525.0</ele><time>2026-05-01T09:55:44.358Z</time></trkpt><trkpt lat="44.0811132" lon="7.9166782"><ele>529.75</ele><time>2026-05-01T09:55:45.359Z</time></trkpt><trkpt lat="44.0810161" lon="7.9168172"><ele>534.5</ele><time>2026-05-01T09:55:46.359Z</time></trkpt><trkpt lat="44.08091" lon="7.9169311"><ele>539.25</ele><time>2026-05-01T09:55:47.359Z</time></trkpt><trkpt lat="44.08078" lon="7.9169891"><ele>544.0</ele><time>2026-05-01T09:55:48.359Z</time></trkpt><trkpt lat="44.0806448" lon="7.9170151"><ele>544.0</ele><time>2026-05-01T09:55:49.359Z</time></trkpt><trkpt lat="44.0805058" lon="7.9170517"><ele>544.0</ele><time>2026-05-01T09:55:50.358Z</time></trkpt><trkpt lat="44.0803716" lon="7.9170867"><ele>544.0</ele><time>2026-05-01T09:55:51.359Z</time></trkpt><trkpt lat="44.0802329" lon="7.917147"><ele>544.0</ele><time>2026-05-01T09:55:52.359Z</time></trkpt><trkpt lat="44.0801063" lon="7.9172141"><ele>544.0</ele><time>2026-05-01T09:55:53.359Z</time></trkpt><trkpt lat="44.0799795" lon="7.9173193"><ele>544.0</ele><time>2026-05-01T09:55:54.359Z</time></trkpt><trkpt lat="44.07987" lon="7.9174132"><ele>544.0</ele><time>2026-05-01T09:55:55.358Z</time></trkpt><trkpt lat="44.0797663" lon="7.91755"><ele>544.0</ele><time>2026-05-01T09:55:56.359Z</time></trkpt><trkpt lat="44.0796733" lon="7.9176682"><ele>544.4</ele><time>2026-05-01T09:55:57.358Z</time></trkpt><trkpt lat="44.0796154" lon="7.9178065"><ele>544.8</ele><time>2026-05-01T09:55:58.359Z</time></trkpt><trkpt lat="44.0795642" lon="7.9179185"><ele>545.2</ele><time>2026-05-01T09:55:59.358Z</time></trkpt><trkpt lat="44.0794901" lon="7.9179743"><ele>545.6</ele><time>2026-05-01T09:56:00.359Z</time></trkpt><trkpt lat="44.079414" lon="7.9179672"><ele>546.0</ele><time>2026-05-01T09:56:01.359Z</time></trkpt><trkpt lat="44.0792594" lon="7.9179142"><ele>546.0</ele><time>2026-05-01T09:56:03.359Z</time></trkpt><trkpt lat="44.0791767" lon="7.9179571"><ele>546.0</ele><time>2026-05-01T09:56:04.359Z</time></trkpt><trkpt lat="44.0790885" lon="7.9180223"><ele>546.0</ele><time>2026-05-01T09:56:05.359Z</time></trkpt><trkpt lat="44.0790097" lon="7.9181064"><ele>546.0</ele><time>2026-05-01T09:56:06.359Z</time></trkpt><trkpt lat="44.0789345" lon="7.9182279"><ele>546.0</ele><time>2026-05-01T09:56:07.359Z</time></trkpt><trkpt lat="44.0788612" lon="7.9183575"><ele>543.8</ele><time>2026-05-01T09:56:08.359Z</time></trkpt><trkpt lat="44.0787973" lon="7.9184948"><ele>541.6</ele><time>2026-05-01T09:56:09.358Z</time></trkpt><trkpt lat="44.0787642" lon="7.9186488"><ele>539.4</ele><time>2026-05-01T09:56:10.359Z</time></trkpt><trkpt lat="44.0787592" lon="7.9187957"><ele>537.2</ele><time>2026-05-01T09:56:11.359Z</time></trkpt><trkpt lat="44.0787547" lon="7.9189041"><ele>535.0</ele><time>2026-05-01T09:56:12.359Z</time></trkpt><trkpt lat="44.0787499" lon="7.9190062"><ele>535.0</ele><time>2026-05-01T09:56:13.359Z</time></trkpt><trkpt lat="44.0787307" lon="7.9191403"><ele>535.0</ele><time>2026-05-01T09:56:15.359Z</time></trkpt><trkpt lat="44.0787564" lon="7.919041"><ele>535.0</ele><time>2026-05-01T09:56:18.359Z</time></trkpt><trkpt lat="44.0787496" lon="7.9188675"><ele>535.0</ele><time>2026-05-01T09:56:20.358Z</time></trkpt><trkpt lat="44.0788394" lon="7.9187134"><ele>535.0</ele><time>2026-05-01T09:56:22.358Z</time></trkpt><trkpt lat="44.0789121" lon="7.9186232"><ele>535.0</ele><time>2026-05-01T09:56:23.358Z</time></trkpt><trkpt lat="44.0790054" lon="7.9185286"><ele>535.0</ele><time>2026-05-01T09:56:24.359Z</time></trkpt><trkpt lat="44.0791208" lon="7.918433"><ele>535.0</ele><time>2026-05-01T09:56:25.359Z</time></trkpt><trkpt lat="44.079229" lon="7.9183698"><ele>535.0</ele><time>2026-05-01T09:56:26.359Z</time></trkpt><trkpt lat="44.0793367" lon="7.9183415"><ele>537.2</ele><time>2026-05-01T09:56:27.359Z</time></trkpt><trkpt lat="44.0794469" lon="7.9183824"><ele>539.4</ele><time>2026-05-01T09:56:28.359Z</time></trkpt><trkpt lat="44.079544" lon="7.918458"><ele>541.6</ele><time>2026-05-01T09:56:29.359Z</time></trkpt><trkpt lat="44.0796344" lon="7.9185019"><ele>543.8</ele><time>2026-05-01T09:56:30.359Z</time></trkpt><trkpt lat="44.0797248" lon="7.9185366"><ele>546.0</ele><time>2026-05-01T09:56:31.358Z</time></trkpt><trkpt lat="44.0798158" lon="7.9185315"><ele>546.0</ele><time>2026-05-01T09:56:32.358Z</time></trkpt><trkpt lat="44.079883" lon="7.9183939"><ele>546.0</ele><time>2026-05-01T09:56:33.359Z</time></trkpt><trkpt lat="44.0799108" lon="7.9181597"><ele>546.0</ele><time>2026-05-01T09:56:34.359Z</time></trkpt><trkpt lat="44.079986" lon="7.9180191"><ele>546.0</ele><time>2026-05-01T09:56:35.358Z</time></trkpt><trkpt lat="44.080072" lon="7.9178946"><ele>545.5</ele><time>2026-05-01T09:56:36.359Z</time></trkpt><trkpt lat="44.0801832" lon="7.9177902"><ele>545.0</ele><time>2026-05-01T09:56:37.359Z</time></trkpt><trkpt lat="44.0803018" lon="7.9176769"><ele>544.5</ele><time>2026-05-01T09:56:38.359Z</time></trkpt><trkpt lat="44.0804122" lon="7.9175803"><ele>544.0</ele><time>2026-05-01T09:56:39.358Z</time></trkpt><trkpt lat="44.080535" lon="7.9175225"><ele>544.0</ele><time>2026-05-01T09:56:40.359Z</time></trkpt><trkpt lat="44.0806745" lon="7.9174953"><ele>544.0</ele><time>2026-05-01T09:56:41.358Z</time></trkpt><trkpt lat="44.0808234" lon="7.9174895"><ele>544.0</ele><time>2026-05-01T09:56:42.359Z</time></trkpt><trkpt lat="44.0809834" lon="7.9174843"><ele>550.0</ele><time>2026-05-01T09:56:43.359Z</time></trkpt><trkpt lat="44.0811443" lon="7.9174802"><ele>556.0</ele><time>2026-05-01T09:56:44.359Z</time></trkpt><trkpt lat="44.0813001" lon="7.9174464"><ele>562.0</ele><time>2026-05-01T09:56:45.359Z</time></trkpt><trkpt lat="44.0814622" lon="7.9173887"><ele>567.3333333333334</ele><time>2026-05-01T09:56:46.359Z</time></trkpt><trkpt lat="44.0816143" lon="7.9173246"><ele>572.6666666666666</ele><time>2026-05-01T09:56:47.359Z</time></trkpt><trkpt lat="44.0817459" lon="7.9172359"><ele>578.0</ele><time>2026-05-01T09:56:48.359Z</time></trkpt><trkpt lat="44.0818608" lon="7.9171091"><ele>578.0</ele><time>2026-05-01T09:56:49.359Z</time></trkpt><trkpt lat="44.0819741" lon="7.9169668"><ele>578.0</ele><time>2026-05-01T09:56:50.359Z</time></trkpt><trkpt lat="44.0820962" lon="7.9168329"><ele>578.0</ele><time>2026-05-01T09:56:51.359Z</time></trkpt><trkpt lat="44.0822134" lon="7.9166751"><ele>579.0</ele><time>2026-05-01T09:56:52.358Z</time></trkpt><trkpt lat="44.0823234" lon="7.9164982"><ele>580.0</ele><time>2026-05-01T09:56:53.358Z</time></trkpt><trkpt lat="44.0824254" lon="7.9163146"><ele>581.0</ele><time>2026-05-01T09:56:54.358Z</time></trkpt><trkpt lat="44.0825275" lon="7.9161444"><ele>581.0</ele><time>2026-05-01T09:56:55.359Z</time></trkpt><trkpt lat="44.0826321" lon="7.9159822"><ele>581.0</ele><time>2026-05-01T09:56:56.357Z</time></trkpt><trkpt lat="44.0827335" lon="7.9158451"><ele>581.0</ele><time>2026-05-01T09:56:57.358Z</time></trkpt><trkpt lat="44.082843" lon="7.9157434"><ele>581.0</ele><time>2026-05-01T09:56:58.359Z</time></trkpt><trkpt lat="44.0829629" lon="7.9156586"><ele>581.0</ele><time>2026-05-01T09:56:59.359Z</time></trkpt><trkpt lat="44.0830962" lon="7.9156035"><ele>581.0</ele><time>2026-05-01T09:57:00.358Z</time></trkpt><trkpt lat="44.0832416" lon="7.9155713"><ele>581.0</ele><time>2026-05-01T09:57:01.359Z</time></trkpt><trkpt lat="44.0833776" lon="7.9155526"><ele>581.0</ele><time>2026-05-01T09:57:02.359Z</time></trkpt><trkpt lat="44.0835039" lon="7.9155672"><ele>581.0</ele><time>2026-05-01T09:57:03.359Z</time></trkpt><trkpt lat="44.0836026" lon="7.9156391"><ele>581.0</ele><time>2026-05-01T09:57:04.358Z</time></trkpt><trkpt lat="44.0836895" lon="7.9157413"><ele>581.0</ele><time>2026-05-01T09:57:05.359Z</time></trkpt><trkpt lat="44.0837697" lon="7.9158395"><ele>581.0</ele><time>2026-05-01T09:57:06.359Z</time></trkpt><trkpt lat="44.0838595" lon="7.9158744"><ele>581.0</ele><time>2026-05-01T09:57:07.359Z</time></trkpt><trkpt lat="44.0839496" lon="7.9158498"><ele>581.0</ele><time>2026-05-01T09:57:08.359Z</time></trkpt><trkpt lat="44.084034" lon="7.9158331"><ele>581.0</ele><time>2026-05-01T09:57:09.359Z</time></trkpt><trkpt lat="44.0841072" lon="7.915765"><ele>581.0</ele><time>2026-05-01T09:57:10.359Z</time></trkpt><trkpt lat="44.0841942" lon="7.9157517"><ele>581.0</ele><time>2026-05-01T09:57:11.358Z</time></trkpt><trkpt lat="44.0842859" lon="7.9157926"><ele>581.0</ele><time>2026-05-01T09:57:12.359Z</time></trkpt><trkpt lat="44.0843677" lon="7.9158746"><ele>581.6</ele><time>2026-05-01T09:57:13.359Z</time></trkpt><trkpt lat="44.0844497" lon="7.9159334"><ele>582.2</ele><time>2026-05-01T09:57:14.358Z</time></trkpt><trkpt lat="44.0845361" lon="7.9159537"><ele>582.8</ele><time>2026-05-01T09:57:15.358Z</time></trkpt><trkpt lat="44.0846162" lon="7.9158287"><ele>583.4</ele><time>2026-05-01T09:57:16.359Z</time></trkpt><trkpt lat="44.0846908" lon="7.9157181"><ele>584.0</ele><time>2026-05-01T09:57:17.359Z</time></trkpt><trkpt lat="44.0847672" lon="7.9155959"><ele>584.0</ele><time>2026-05-01T09:57:18.359Z</time></trkpt><trkpt lat="44.0848625" lon="7.9154972"><ele>584.0</ele><time>2026-05-01T09:57:19.359Z</time></trkpt><trkpt lat="44.0849566" lon="7.9154551"><ele>584.0</ele><time>2026-05-01T09:57:20.359Z</time></trkpt><trkpt lat="44.0850462" lon="7.9154886"><ele>584.0</ele><time>2026-05-01T09:57:21.359Z</time></trkpt><trkpt lat="44.0851484" lon="7.9155515"><ele>584.0</ele><time>2026-05-01T09:57:22.357Z</time></trkpt><trkpt lat="44.0852671" lon="7.9156231"><ele>585.75</ele><time>2026-05-01T09:57:23.358Z</time></trkpt><trkpt lat="44.0853934" lon="7.9157095"><ele>587.5</ele><time>2026-05-01T09:57:24.358Z</time></trkpt><trkpt lat="44.0855113" lon="7.9158095"><ele>589.25</ele><time>2026-05-01T09:57:25.359Z</time></trkpt><trkpt lat="44.0856218" lon="7.9159544"><ele>591.0</ele><time>2026-05-01T09:57:26.358Z</time></trkpt><trkpt lat="44.0857497" lon="7.9160886"><ele>599.3333333333334</ele><time>2026-05-01T09:57:27.359Z</time></trkpt><trkpt lat="44.0858953" lon="7.9162038"><ele>607.6666666666667</ele><time>2026-05-01T09:57:28.357Z</time></trkpt><trkpt lat="44.086053" lon="7.9163002"><ele>616.0</ele><time>2026-05-01T09:57:29.359Z</time></trkpt><trkpt lat="44.0862119" lon="7.9163955"><ele>616.0</ele><time>2026-05-01T09:57:30.359Z</time></trkpt><trkpt lat="44.086372" lon="7.9164759"><ele>616.0</ele><time>2026-05-01T09:57:31.359Z</time></trkpt><trkpt lat="44.0865179" lon="7.9165735"><ele>616.0</ele><time>2026-05-01T09:57:32.358Z</time></trkpt><trkpt lat="44.0866649" lon="7.9166609"><ele>617.6666666666667</ele><time>2026-05-01T09:57:33.359Z</time></trkpt><trkpt lat="44.0867904" lon="7.916815"><ele>619.3333333333334</ele><time>2026-05-01T09:57:34.359Z</time></trkpt><trkpt lat="44.0869096" lon="7.916946"><ele>621.0</ele><time>2026-05-01T09:57:35.358Z</time></trkpt><trkpt lat="44.0870035" lon="7.9170867"><ele>621.0</ele><time>2026-05-01T09:57:36.359Z</time></trkpt><trkpt lat="44.087091" lon="7.9172285"><ele>621.0</ele><time>2026-05-01T09:57:37.358Z</time></trkpt><trkpt lat="44.0871398" lon="7.9173315"><ele>621.0</ele><time>2026-05-01T09:57:38.359Z</time></trkpt><trkpt lat="44.0872025" lon="7.9174239"><ele>621.0</ele><time>2026-05-01T09:57:39.358Z</time></trkpt><trkpt lat="44.0872765" lon="7.9174844"><ele>621.0</ele><time>2026-05-01T09:57:40.359Z</time></trkpt><trkpt lat="44.0873503" lon="7.9174797"><ele>616.75</ele><time>2026-05-01T09:57:41.358Z</time></trkpt><trkpt lat="44.0874479" lon="7.9173911"><ele>612.5</ele><time>2026-05-01T09:57:42.359Z</time></trkpt><trkpt lat="44.0875388" lon="7.9172105"><ele>608.25</ele><time>2026-05-01T09:57:43.359Z</time></trkpt><trkpt lat="44.0876065" lon="7.9170629"><ele>604.0</ele><time>2026-05-01T09:57:44.359Z</time></trkpt><trkpt lat="44.0875539" lon="7.9167724"><ele>602.5</ele><time>2026-05-01T09:57:45.359Z</time></trkpt><trkpt lat="44.087551" lon="7.9165998"><ele>601.0</ele><time>2026-05-01T09:57:46.359Z</time></trkpt><trkpt lat="44.0875049" lon="7.9163818"><ele>599.5</ele><time>2026-05-01T09:57:47.359Z</time></trkpt><trkpt lat="44.0874392" lon="7.9162104"><ele>598.0</ele><time>2026-05-01T09:57:48.359Z</time></trkpt><trkpt lat="44.0873748" lon="7.9160598"><ele>595.6</ele><time>2026-05-01T09:57:49.359Z</time></trkpt><trkpt lat="44.0873515" lon="7.91592"><ele>593.1999999999999</ele><time>2026-05-01T09:57:50.359Z</time></trkpt><trkpt lat="44.0873338" lon="7.9157788"><ele>590.8</ele><time>2026-05-01T09:57:51.359Z</time></trkpt><trkpt lat="44.0873176" lon="7.9156643"><ele>588.4</ele><time>2026-05-01T09:57:52.358Z</time></trkpt><trkpt lat="44.0873172" lon="7.9155081"><ele>586.0</ele><time>2026-05-01T09:57:54.359Z</time></trkpt><trkpt lat="44.0873017" lon="7.9154125"><ele>568.0</ele><time>2026-05-01T09:57:57.359Z</time></trkpt></trkseg></trk></gpx>